Flight Track Log - Related Links

Times and Time Zones

All times are in EDT time to prevent confusion due to time zone crossing. See the CES220 flight status page for this flight to view local times or setup timezone preferences in your user account.

Time Position Orientation Groundspeed Altitude Reporting Facility
EDT Latitude Longitude Course Direction KTS MPH feet Rate Location/Type
Tue 09:09:06 AM 50.0420 8.5750 249° West 100 115  Level FlightAware ADS-B
Tue 09:09:24 AM 50.0390 8.5600 253° West 155 178 1,800 Level FlightAware ADS-B
Tue 09:09:46 AM 50.0330 8.5340 250° West 160 184 1,200 2,857 Climbing FlightAware ADS-B
Tue 09:10:06 AM 50.0280 8.5130 250° West 155 178 2,000 2,308 Climbing FlightAware ADS-B
Tue 09:10:12 AM 50.0270 8.5060 257° West 156 180 2,200 1,500 Climbing FlightAware ADS-B
Tue 09:10:34 AM 50.0290 8.4820 277° West 160 184 2,700 1,500 Climbing FlightAware ADS-B
Tue 09:11:00 AM 50.0310 8.4520 276° West 159 183 3,400 1,500 Climbing FlightAware ADS-B
Tue 09:11:06 AM 50.0320 8.4450 283° West 160 184 3,500 1,000 Climbing FlightAware ADS-B
Tue 09:11:30 AM 50.0380 8.4160 288° West 189 217 3,900 938 Climbing FlightAware ADS-B
Tue 09:11:38 AM 50.0430 8.4090 318° Northwest 197 227 4,000 1,071 Climbing FlightAware ADS-B
Tue 09:11:58 AM 50.0580 8.3920 324° Northwest 217 250 4,400 1,200 Climbing FlightAware ADS-B
Tue 09:12:18 AM 50.0750 8.3720 323° Northwest 240 276 4,800 1,500 Climbing FlightAware ADS-B
Tue 09:12:38 AM 50.0940 8.3500 323° Northwest 254 292 5,400 2,000 Climbing FlightAware ADS-B
Tue 09:12:54 AM 50.1100 8.3340 327° Northwest 265 305 6,000 2,250 Climbing FlightAware ADS-B
Tue 09:13:02 AM 50.1190 8.3300 344° North 268 308 6,300 2,500 Climbing FlightAware ADS-B
Tue 09:13:06 AM 50.1250 8.3290 354° North 270 311 6,500 3,000 Climbing FlightAware ADS-B
Tue 09:13:26 AM 50.1500 8.3380 13° North 269 310 7,500 2,550 Climbing FlightAware ADS-B
Tue 09:13:46 AM 50.1730 8.3490 17° North 273 314 8,200 2,308 Climbing FlightAware ADS-B
Tue 09:14:18 AM 50.2140 8.3680 17° North 289 333 9,500 2,471 Climbing FlightAware ADS-B
Tue 09:14:54 AM 50.2630 8.3760 North 290 334 11,000 2,382 Climbing FlightAware ADS-B
Tue 09:15:26 AM 50.3060 8.3800 North 295 339 12,200 2,294 Climbing FlightAware ADS-B
Tue 09:16:02 AM 50.3560 8.3840 North 299 344 13,600 2,206 Climbing FlightAware ADS-B
Tue 09:16:34 AM 50.4000 8.3870 North 307 353 14,700 2,167 Climbing FlightAware ADS-B
Tue 09:17:14 AM 50.4570 8.3950 North 311 358 16,200 1,833 Climbing FlightAware ADS-B
Tue 09:17:46 AM 50.5060 8.4010 North 331 381 16,900 1,676 Climbing FlightAware ADS-B
Tue 09:18:22 AM 50.5600 8.4090 North 337 388 18,100 1,750 Climbing FlightAware ADS-B
Tue 09:18:58 AM 50.6180 8.4150 North 351 404 19,000 1,588 Climbing FlightAware ADS-B
Tue 09:19:30 AM 50.6700 8.4210 North 357 411 19,900 1,853 Climbing FlightAware ADS-B
Tue 09:20:06 AM 50.7300 8.4280 North 362 417 21,100 2,167 Climbing FlightAware ADS-B
Tue 09:20:42 AM 50.7900 8.4340 North 357 411 22,500 2,250 Climbing FlightAware ADS-B
Tue 09:21:18 AM 50.8470 8.4440 North 351 404 23,800 2,000 Climbing FlightAware ADS-B
Tue 09:21:30 AM 50.8660 8.4590 26° Northeast 361 415 24,100 1,000 Climbing FlightAware ADS-B
Tue 09:22:06 AM 50.9140 8.5180 38° Northeast 380 437 24,600 917 Climbing FlightAware ADS-B
Tue 09:22:42 AM 50.9660 8.5830 38° Northeast 393 452 25,200 1,000 Climbing FlightAware ADS-B
Tue 09:23:12 AM 51.0050 8.6310 38° Northeast 400 460 25,700 1,059 Climbing FlightAware ADS-B
Tue 09:23:50 AM 51.0640 8.7040 38° Northeast 411 473 26,400 1,360 Climbing FlightAware ADS-B
Tue 09:24:27 AM 51.1210 8.7710 36° Northeast 409 471 27,400 1,268 Climbing FlightAware ADS-B
Tue 09:25:01 AM 51.1740 8.8240 32° Northeast 415 478 27,900 738 Climbing FlightAware ADS-B
Tue 09:25:32 AM 51.2280 8.8770 32° Northeast 427 491 28,200 514 Climbing FlightAware ADS-B
Tue 09:26:11 AM 51.2930 8.9400 31° Northeast 441 507 28,500 575 Climbing FlightAware ADS-B
Tue 09:26:45 AM 51.3530 8.9980 31° Northeast 449 517 28,900 870 Climbing FlightAware ADS-B
Tue 09:27:20 AM 51.4170 9.0580 30° Northeast 454 522 29,500 1,000 Climbing FlightAware ADS-B
Tue 09:27:57 AM 51.4840 9.1200 30° Northeast 458 527 30,100 1,043 Climbing FlightAware ADS-B
Tue 09:28:29 AM 51.5450 9.1770 30° Northeast 461 531 30,700 957 Climbing FlightAware ADS-B
Tue 09:29:06 AM 51.6130 9.2400 30° Northeast 466 536 31,200 600 Climbing FlightAware ADS-B
Tue 09:29:39 AM 51.6740 9.2950 29° Northeast 476 548 31,400 348 Climbing FlightAware ADS-B
Tue 09:30:15 AM 51.7430 9.3590 30° Northeast 485 558 31,600 507 Climbing FlightAware ADS-B
Tue 09:30:50 AM 51.8140 9.4230 29° Northeast 493 567 32,000 686 Climbing FlightAware ADS-B
Tue 09:31:25 AM 51.8840 9.4850 29° Northeast 499 574 32,400 761 Climbing FlightAware ADS-B
Tue 09:32:01 AM 51.9570 9.5520 29° Northeast 499 574 32,900 957 Climbing FlightAware ADS-B
Tue 09:32:34 AM 52.0230 9.6120 29° Northeast 496 571 33,500 1,043 Climbing FlightAware ADS-B
Tue 09:33:10 AM 52.0930 9.6760 29° Northeast 492 566 34,100 904 Climbing FlightAware ADS-B
Tue 09:33:47 AM 52.1660 9.7450 30° Northeast 490 564 34,600 583 Climbing FlightAware ADS-B
Tue 09:34:22 AM 52.2350 9.8080 29° Northeast 494 568 34,800 343 Climbing FlightAware ADS-B
Tue 09:34:57 AM 52.3040 9.8750 31° Northeast 499 574 35,000 179 Climbing FlightAware ADS-B
Tue 09:35:29 AM 52.3640 9.9550 39° Northeast 507 583 35,000  Level FlightAware ADS-B
Tue 09:36:06 AM 52.4230 10.0510 45° Northeast 512 589 35,000  Level FlightAware ADS-B
Tue 09:36:39 AM 52.4800 10.1420 44° Northeast 513 590 35,000  Level FlightAware ADS-B
Tue 09:37:15 AM 52.5360 10.2340 45° Northeast 511 588 35,000  Level FlightAware ADS-B
Tue 09:37:50 AM 52.5990 10.3370 45° Northeast 509 586 35,000  Level FlightAware ADS-B
Tue 09:38:25 AM 52.6550 10.4280 45° Northeast 507 583 35,000  Level FlightAware ADS-B
Tue 09:38:53 AM 52.7010 10.5040 45° Northeast 508 585 35,000  Level FlightAware ADS-B
Tue 09:39:29 AM 52.7650 10.6100 45° Northeast 509 586 35,000  Level FlightAware ADS-B
Tue 09:40:05 AM 52.8230 10.7050 45° Northeast 508 585 35,000  Level FlightAware ADS-B
Tue 09:40:39 AM 52.8780 10.7980 46° Northeast 510 587 35,000  Level FlightAware ADS-B
Tue 09:41:12 AM 52.9310 10.8860 45° Northeast 511 588 35,000  Level FlightAware ADS-B
Tue 09:41:46 AM 52.9880 10.9820 45° Northeast 511 588 35,000  Level FlightAware ADS-B
Tue 09:42:25 AM 53.0530 11.0920 45° Northeast 511 588 35,000  Level FlightAware ADS-B
Tue 09:42:56 AM 53.1060 11.1820 46° Northeast 511 588 35,000  Level FlightAware ADS-B
Tue 09:43:37 AM 53.1740 11.2960 45° Northeast 509 586 35,000  Level FlightAware ADS-B
Tue 09:44:17 AM 53.2380 11.4060 46° Northeast 509 586 35,000  Level FlightAware ADS-B
Tue 09:44:48 AM 53.2860 11.4890 46° Northeast 510 587 35,000  Level FlightAware ADS-B
Tue 09:45:23 AM 53.3450 11.5900 46° Northeast 510 587 35,000  Level FlightAware ADS-B
Tue 09:46:02 AM 53.4090 11.7000 46° Northeast 509 586 35,000  Level FlightAware ADS-B
Tue 09:46:34 AM 53.4620 11.7920 46° Northeast 507 583 35,000  Level FlightAware ADS-B
Tue 09:47:11 AM 53.5230 11.8990 46° Northeast 508 585 35,000  Level FlightAware ADS-B
Tue 09:47:49 AM 53.5850 12.0080 46° Northeast 508 585 35,000  Level FlightAware ADS-B
Tue 09:48:20 AM 53.6340 12.0950 46° Northeast 508 585 35,000  Level FlightAware ADS-B
Tue 09:48:59 AM 53.6970 12.2050 46° Northeast 507 583 35,000  Level FlightAware ADS-B
Tue 09:49:29 AM 53.7470 12.2930 46° Northeast 505 581 35,000  Level FlightAware ADS-B
Tue 09:50:07 AM 53.8070 12.4010 47° Northeast 505 581 35,000  Level FlightAware ADS-B
Tue 09:50:43 AM 53.8650 12.5050 47° Northeast 503 579 35,000  Level FlightAware ADS-B
Tue 09:51:24 AM 53.9290 12.6200 47° Northeast 503 579 35,000  Level FlightAware ADS-B
Tue 09:52:00 AM 53.9870 12.7230 46° Northeast 503 579 35,000  Level FlightAware ADS-B
Tue 09:52:36 AM 54.0460 12.8300 47° Northeast 504 580 35,000  Level FlightAware ADS-B
Tue 09:53:08 AM 54.0970 12.9240 47° Northeast 504 580 35,000  Level FlightAware ADS-B
Tue 09:53:45 AM 54.1540 13.0280 47° Northeast 503 579 35,000  Level FlightAware ADS-B
Tue 09:54:21 AM 54.2110 13.1330 47° Northeast 501 577 35,000  Level FlightAware ADS-B
Tue 09:54:53 AM 54.2590 13.2220 47° Northeast 500 575 35,000  Level FlightAware ADS-B
Tue 09:55:27 AM 54.3150 13.3240 47° Northeast 501 577 35,000  Level FlightAware ADS-B
Tue 09:56:03 AM 54.3700 13.4280 48° Northeast 501 577 35,000  Level FlightAware ADS-B
Tue 09:56:40 AM 54.4290 13.5380 47° Northeast 503 579 35,000  Level FlightAware ADS-B
Tue 09:57:12 AM 54.4790 13.6310 47° Northeast 501 577 35,000  Level FlightAware ADS-B
Tue 09:57:48 AM 54.5360 13.7380 47° Northeast 496 571 35,000  Level FlightAware ADS-B
Tue 09:58:24 AM 54.5880 13.8410 49° Northeast 492 566 35,000  Level FlightAware ADS-B
Tue 09:58:57 AM 54.6370 13.9390 49° Northeast 492 566 35,000  Level FlightAware ADS-B
Tue 09:59:33 AM 54.6910 14.0460 49° Northeast 494 568 35,000  Level FlightAware ADS-B
Tue 10:00:09 AM 54.7440 14.1530 49° Northeast 494 568 35,000  Level FlightAware ADS-B
Tue 10:00:43 AM 54.7950 14.2570 50° Northeast 492 566 35,000  Level FlightAware ADS-B
Tue 10:01:19 AM 54.8450 14.3650 51° Northeast 491 565 35,000  Level FlightAware ADS-B
Tue 10:01:55 AM 54.8980 14.4780 51° Northeast 490 564 35,000  Level FlightAware ADS-B
Tue 10:02:28 AM 54.9430 14.5760 51° Northeast 490 564 35,000  Level FlightAware ADS-B
Tue 10:03:04 AM 54.9960 14.6900 51° Northeast 486 559 35,000  Level FlightAware ADS-B
Tue 10:03:37 AM 55.0400 14.7850 51° Northeast 484 557 35,000  Level FlightAware ADS-B
Tue 10:04:15 AM 55.0940 14.9030 51° Northeast 482 555 35,000  Level FlightAware ADS-B
Tue 10:04:48 AM 55.1390 15.0040 52° Northeast 481 554 35,000  Level FlightAware ADS-B
Tue 10:05:23 AM 55.1850 15.1050 51° Northeast 480 552 35,000  Level FlightAware ADS-B
Tue 10:05:59 AM 55.2360 15.2170 51° Northeast 481 554 35,000  Level FlightAware ADS-B
Tue 10:06:34 AM 55.2850 15.3260 52° Northeast 482 555 35,000  Level FlightAware ADS-B
Tue 10:07:05 AM 55.3240 15.4130 52° Northeast 482 555 35,000  Level FlightAware ADS-B
Tue 10:07:44 AM 55.3780 15.5350 52° Northeast 481 554 35,000  Level FlightAware ADS-B
Tue 10:08:18 AM 55.4260 15.6430 52° Northeast 479 551 35,000  Level FlightAware ADS-B
Tue 10:08:53 AM 55.4740 15.7510 52° Northeast 476 548 35,000  Level FlightAware ADS-B
Tue 10:09:28 AM 55.5220 15.8620 53° Northeast 474 545 35,000  Level FlightAware ADS-B
Tue 10:10:05 AM 55.5690 15.9680 52° Northeast 471 542 35,000  Level FlightAware ADS-B
Tue 10:10:43 AM 55.6210 16.0870 52° Northeast 470 541 35,000  Level FlightAware ADS-B
Tue 10:10:56 AM 55.6380 16.1260 52° Northeast 472 543 35,000  Level FlightAware ADS-B
Tue 10:11:56 AM 55.7200 16.3150 52° Northeast 476 548 35,000  Level FlightAware ADS-B
Tue 10:12:29 AM 55.7620 16.4140 53° Northeast 473 544 35,000  Level FlightAware ADS-B
Tue 10:13:05 AM 55.8120 16.5300 52° Northeast 472 543 35,000  Level FlightAware ADS-B
Tue 10:13:39 AM 55.8550 16.6320 53° Northeast 471 542 35,000  Level FlightAware ADS-B
Tue 10:14:16 AM 55.9040 16.7470 53° Northeast 470 541 35,000  Level FlightAware ADS-B
Tue 10:14:49 AM 55.9460 16.8460 53° Northeast 470 541 35,000  Level FlightAware ADS-B
Tue 10:15:26 AM 55.9950 16.9610 53° Northeast 472 543 35,000  Level FlightAware ADS-B
Tue 10:16:00 AM 56.0390 17.0680 54° Northeast 471 542 35,000  Level FlightAware ADS-B
Tue 10:16:33 AM 56.0820 17.1710 53° Northeast 469 540 35,000  Level FlightAware ADS-B
Tue 10:17:07 AM 56.1260 17.2780 54° Northeast 466 536 35,000  Level FlightAware ADS-B
Tue 10:17:45 AM 56.1740 17.3930 53° Northeast 464 534 35,000  Level FlightAware ADS-B
Tue 10:18:22 AM 56.2220 17.5090 53° Northeast 462 532 35,000  Level FlightAware ADS-B
Tue 10:18:55 AM 56.2620 17.6070 54° Northeast 462 532 35,000  Level FlightAware ADS-B
Tue 10:19:31 AM 56.3090 17.7230 54° Northeast 462 532 35,000  Level FlightAware ADS-B
Tue 10:20:01 AM 56.3460 17.8140 54° Northeast 461 531 35,000  Level FlightAware ADS-B
Tue 10:20:34 AM 56.3870 17.9160 54° Northeast 461 531 35,000  Level FlightAware ADS-B
Tue 10:21:07 AM 56.4280 18.0160 53° Northeast 461 531 35,000  Level FlightAware ADS-B
Tue 10:21:43 AM 56.4740 18.1320 54° Northeast 460 529 35,000  Level FlightAware ADS-B
Tue 10:22:20 AM 56.5190 18.2460 54° Northeast 459 528 35,000  Level FlightAware ADS-B
Tue 10:23:00 AM 56.5690 18.3710 54° Northeast 460 529 35,000  Level FlightAware ADS-B
Tue 10:23:36 AM 56.6120 18.4790 54° Northeast 459 528 35,000  Level FlightAware ADS-B
Tue 10:24:08 AM 56.6520 18.5800 54° Northeast 460 529 35,000  Level FlightAware ADS-B
Tue 10:24:46 AM 56.6990 18.7020 55° Northeast 460 529 35,000  Level FlightAware ADS-B
Tue 10:25:18 AM 56.7390 18.8030 54° Northeast 460 529 35,000  Level FlightAware ADS-B
Tue 10:25:54 AM 56.7830 18.9170 55° Northeast 460 529 35,000  Level FlightAware ADS-B
Tue 10:26:28 AM 56.8230 19.0220 55° Northeast 460 529 35,000  Level FlightAware ADS-B
Tue 10:27:07 AM 56.8700 19.1430 55° Northeast 461 531 35,000  Level FlightAware ADS-B
Tue 10:27:37 AM 56.9070 19.2390 55° Northeast 461 531 35,000  Level FlightAware ADS-B
Tue 10:28:13 AM 56.9530 19.3600 55° Northeast 461 531 35,000  Level FlightAware ADS-B
Tue 10:28:52 AM 56.9990 19.4810 55° Northeast 462 532 35,000  Level FlightAware ADS-B
Tue 10:29:24 AM 57.0380 19.5840 55° Northeast 460 529 35,000  Level FlightAware ADS-B
Tue 10:30:02 AM 57.0840 19.7090 56° Northeast 460 529 35,000  Level FlightAware ADS-B
Tue 10:30:34 AM 57.1220 19.8100 55° Northeast 461 531 35,000  Level FlightAware ADS-B
Tue 10:31:10 AM 57.1650 19.9290 56° Northeast 460 529 35,000  Level FlightAware ADS-B
Tue 10:31:46 AM 57.1990 20.0530 63° Northeast 457 526 35,000  Level FlightAware ADS-B
Tue 10:32:18 AM 57.2280 20.1640 64° Northeast 458 527 35,000  Level FlightAware ADS-B
Tue 10:32:56 AM 57.2630 20.2970 64° Northeast 460 529 35,000  Level FlightAware ADS-B
Tue 10:33:32 AM 57.2980 20.4310 64° Northeast 462 532 35,000  Level FlightAware ADS-B
Tue 10:34:08 AM 57.3290 20.5530 65° Northeast 464 534 35,000  Level FlightAware ADS-B
Tue 10:34:46 AM 57.3640 20.6890 64° Northeast 466 536 35,000  Level FlightAware ADS-B
Tue 10:35:24 AM 57.3980 20.8240 65° Northeast 467 537 35,000  Level FlightAware ADS-B
Tue 10:35:56 AM 57.4290 20.9440 64° Northeast 468 539 35,000  Level FlightAware ADS-B
Tue 10:36:34 AM 57.4610 21.0720 65° Northeast 468 539 35,000  Level FlightAware ADS-B
Tue 10:37:14 AM 57.4990 21.2230 65° Northeast 469 540 35,000  Level FlightAware ADS-B
Tue 10:37:46 AM 57.5280 21.3400 65° Northeast 468 539 35,000  Level FlightAware ADS-B
Tue 10:38:24 AM 57.5630 21.4810 65° Northeast 468 539 35,000  Level FlightAware ADS-B
Tue 10:39:00 AM 57.5940 21.6070 65° Northeast 467 537 35,000  Level FlightAware ADS-B
Tue 10:39:36 AM 57.6260 21.7390 66° East 469 540 35,000  Level FlightAware ADS-B
Tue 10:40:10 AM 57.6580 21.8700 65° Northeast 470 541 35,000  Level FlightAware ADS-B
Tue 10:40:44 AM 57.6890 21.9960 65° Northeast 471 542 35,000 237 Level FlightAware ADS-B
Tue 10:41:26 AM 57.7260 22.1520 66° East 474 545 35,300 692 Climbing FlightAware ADS-B
Tue 10:42:02 AM 57.7570 22.2810 66° East 470 541 35,900 1,029 Climbing FlightAware ADS-B
Tue 10:42:36 AM 57.7870 22.4090 66° East 466 536 36,500 857 Climbing FlightAware ADS-B
Tue 10:43:12 AM 57.8180 22.5430 66° East 467 537 36,900 417 Climbing FlightAware ADS-B
Tue 10:43:48 AM 57.8490 22.6740 66° East 471 542 37,000 91 Climbing FlightAware ADS-B
Tue 10:44:18 AM 57.8760 22.7920 67° East 474 545 37,000  Level FlightAware ADS-B
Tue 10:44:58 AM 57.9100 22.9380 66° East 474 545 37,000  Level FlightAware ADS-B
Tue 10:45:30 AM 57.9380 23.0600 67° East 473 544 37,000  Level FlightAware ADS-B
Tue 10:46:06 AM 57.9680 23.1930 67° East 472 543 37,000  Level FlightAware ADS-B
Tue 10:46:42 AM 57.9990 23.3310 67° East 474 545 37,000  Level FlightAware ADS-B
Tue 10:47:14 AM 58.0270 23.4540 67° East 474 545 37,000  Level FlightAware ADS-B
Tue 10:47:48 AM 58.0560 23.5860 67° East 475 547 37,000  Level FlightAware ADS-B
Tue 10:48:24 AM 58.0870 23.7240 67° East 474 545 37,000  Level FlightAware ADS-B
Tue 10:48:58 AM 58.1150 23.8490 67° East 475 547 37,000  Level FlightAware ADS-B
Tue 10:49:36 AM 58.1460 23.9940 68° East 474 545 37,000  Level FlightAware ADS-B
Tue 10:50:10 AM 58.1750 24.1270 67° East 474 545 37,000  Level FlightAware ADS-B
Tue 10:50:44 AM 58.2040 24.2590 67° East 474 545 37,000  Level FlightAware ADS-B
Tue 10:51:18 AM 58.2320 24.3920 68° East 472 543 37,000  Level FlightAware ADS-B
Tue 10:51:55 AM 58.2630 24.5360 68° East 472 543 37,000  Level FlightAware ADS-B
Tue 10:52:30 AM 58.2910 24.6650 68° East 472 543 37,000  Level FlightAware ADS-B
Tue 10:53:06 AM 58.3200 24.8070 69° East 472 543 37,000  Level FlightAware ADS-B
Tue 10:53:43 AM 58.3500 24.9470 68° East 473 544 37,000  Level FlightAware ADS-B
Tue 10:54:16 AM 58.3770 25.0760 68° East 474 545 37,000  Level FlightAware ADS-B
Tue 10:54:50 AM 58.4040 25.2080 69° East 474 545 37,000  Level FlightAware ADS-B
Tue 10:55:26 AM 58.4310 25.3390 68° East 473 544 37,000  Level FlightAware ADS-B
Tue 10:56:02 AM 58.4600 25.4850 69° East 473 544 37,000  Level FlightAware ADS-B
Tue 10:56:35 AM 58.4860 25.6140 69° East 472 543 37,000  Level FlightAware ADS-B
Tue 10:57:11 AM 58.5150 25.7560 69° East 473 544 37,000  Level FlightAware ADS-B
Tue 10:57:48 AM 58.5440 25.9000 69° East 473 544 37,000  Level FlightAware ADS-B
Tue 10:58:19 AM 58.5680 26.0200 69° East 472 543 37,000  Level FlightAware ADS-B
Tue 10:58:55 AM 58.5950 26.1610 70° East 471 542 37,000  Level FlightAware ADS-B
Tue 10:59:30 AM 58.6220 26.2980 69° East 468 539 37,000  Level FlightAware ADS-B
Tue 11:00:05 AM 58.6480 26.4290 69° East 469 540 37,000  Level FlightAware ADS-B
Tue 11:00:39 AM 58.6740 26.5640 70° East 469 540 37,000  Level FlightAware ADS-B
Tue 11:01:16 AM 58.7010 26.7090 70° East 468 539 37,000  Level FlightAware ADS-B
Tue 11:01:49 AM 58.7260 26.8380 69° East 468 539 37,000  Level FlightAware ADS-B
Tue 11:02:24 AM 58.7510 26.9720 70° East 468 539 37,000  Level FlightAware ADS-B
Tue 11:03:03 AM 58.7800 27.1240 70° East 469 540 37,000  Level FlightAware ADS-B
Tue 11:03:34 AM 58.8030 27.2490 70° East 470 541 37,000  Level FlightAware ADS-B
Tue 11:04:11 AM 58.8300 27.3950 70° East 469 540 37,000  Level FlightAware ADS-B
Tue 11:04:46 AM 58.8500 27.5370 75° East 472 543 37,000  Level FlightAware ADS-B
Tue 11:05:19 AM 58.8640 27.6690 78° East 472 543 37,000  Level FlightAware ADS-B
Tue 11:05:56 AM 58.8800 27.8260 79° East 474 545 37,000  Level FlightAware ADS-B
Tue 11:06:31 AM 58.8950 27.9670 78° East 474 545 37,000  Level FlightAware ADS-B
Tue 11:07:05 AM 58.9100 28.1130 79° East 475 547 37,000  Level FlightAware ADS-B
Tue 11:07:42 AM 58.9250 28.2650 79° East 474 545 37,000  Level FlightAware ADS-B
Tue 11:08:15 AM 58.9380 28.4000 79° East 472 543 37,000  Level FlightAware ADS-B
Tue 11:08:50 AM 58.9510 28.5450 80° East 470 541 37,000  Level FlightAware ADS-B
Tue 11:09:23 AM 58.9630 28.6830 80° East 468 539 37,000  Level FlightAware ADS-B
Tue 11:09:59 AM 58.9760 28.8330 80° East 467 537 37,000  Level FlightAware ADS-B
Tue 11:10:34 AM 58.9880 28.9730 80° East 463 533 37,000  Level FlightAware ADS-B
Tue 11:11:23 AM 59.0120 29.1340 74° East 462 532 37,000  Level FlightAware ADS-B
Tue 11:12:01 AM 59.0510 29.3030 66° East 462 532 37,000  Level FlightAware ADS-B
Tue 11:12:36 AM 59.0850 29.4310 63° Northeast 460 529 37,000  Level FlightAware ADS-B
Tue 11:13:06 AM 59.1150 29.5450 63° Northeast 458 527 37,000  Level FlightAware ADS-B
Tue 11:13:46 AM 59.1530 29.6860 62° Northeast 457 526 37,000  Level FlightAware ADS-B
Tue 11:14:21 AM 59.1860 29.8110 63° Northeast 455 524 37,000  Level FlightAware ADS-B
Tue 11:14:51 AM 59.2150 29.9210 63° Northeast 453 521 37,000  Level FlightAware ADS-B
Tue 11:15:28 AM 59.2470 30.0460 63° Northeast 454 522 37,000  Level FlightAware ADS-B
Tue 11:16:01 AM 59.2820 30.1790 63° Northeast 454 522 37,000  Level FlightAware ADS-B
Tue 11:16:41 AM 59.3180 30.3190 63° Northeast 454 522 37,000  Level FlightAware ADS-B
Tue 11:17:11 AM 59.3480 30.4350 63° Northeast 455 524 37,000  Level FlightAware ADS-B
Tue 11:17:51 AM 59.3850 30.5790 63° Northeast 456 525 37,000  Level FlightAware ADS-B
Tue 11:18:21 AM 59.4110 30.6850 64° Northeast 455 524 37,000  Level FlightAware ADS-B
Tue 11:18:57 AM 59.4430 30.8080 63° Northeast 454 522 37,000  Level FlightAware ADS-B
Tue 11:19:35 AM 59.4840 30.9720 64° Northeast 453 521 37,000  Level FlightAware ADS-B
Tue 11:20:12 AM 59.5170 31.1080 64° Northeast 453 521 37,000  Level FlightAware ADS-B
Tue 11:20:43 AM 59.5450 31.2200 64° Northeast 450 518 37,000  Level FlightAware ADS-B
Tue 11:21:21 AM 59.5790 31.3620 65° Northeast 448 516 37,000  Level FlightAware ADS-B
Tue 11:21:52 AM 59.6070 31.4760 64° Northeast 446 513 37,000  Level FlightAware ADS-B
Tue 11:22:26 AM 59.6380 31.6000 64° Northeast 446 513 37,000  Level FlightAware ADS-B
Tue 11:23:06 AM 59.6720 31.7430 65° Northeast 444 511 37,000  Level FlightAware ADS-B
Tue 11:23:36 AM 59.6990 31.8530 64° Northeast 443 510 37,000  Level FlightAware ADS-B
Tue 11:24:15 AM 59.7340 32.0000 65° Northeast 442 509 37,000  Level FlightAware ADS-B
Tue 11:24:50 AM 59.7630 32.1200 64° Northeast 442 509 37,000  Level FlightAware ADS-B
Tue 11:25:25 AM 59.7950 32.2550 65° Northeast 442 509 37,000  Level FlightAware ADS-B
Tue 11:25:55 AM 59.8170 32.3650 68° East 437 503 37,000  Level FlightAware ADS-B
Tue 11:26:30 AM 59.8350 32.4980 75° East 432 497 37,000  Level FlightAware ADS-B
Tue 11:27:10 AM 59.8530 32.6490 77° East 429 494 37,000  Level FlightAware ADS-B
Tue 11:27:45 AM 59.8690 32.7870 77° East 428 493 37,000  Level FlightAware ADS-B
Tue 11:28:21 AM 59.8840 32.9160 77° East 428 493 37,000  Level FlightAware ADS-B
Tue 11:28:58 AM 59.9010 33.0570 76° East 427 491 37,000  Level FlightAware ADS-B
Tue 11:29:34 AM 59.9170 33.1970 77° East 428 493 37,000  Level FlightAware ADS-B
Tue 11:30:13 AM 59.9340 33.3520 78° East 429 494 37,000  Level FlightAware ADS-B
Tue 11:30:43 AM 59.9470 33.4650 77° East 430 495 37,000  Level FlightAware ADS-B
Tue 11:31:20 AM 59.9630 33.6090 77° East 430 495 37,000  Level FlightAware ADS-B
Tue 11:31:55 AM 59.9780 33.7400 77° East 430 495 37,000  Level FlightAware ADS-B
Tue 11:32:30 AM 59.9930 33.8800 78° East 430 495 37,000  Level FlightAware ADS-B
Tue 11:33:06 AM 60.0080 34.0200 78° East 430 495 37,000  Level FlightAware ADS-B
Tue 11:33:40 AM 60.0220 34.1450 77° East 431 496 37,000  Level FlightAware ADS-B
Tue 11:34:15 AM 60.0370 34.2880 78° East 431 496 37,000  Level FlightAware ADS-B
Tue 11:34:50 AM 60.0510 34.4240 78° East 431 496 37,000  Level FlightAware ADS-B
Tue 11:35:25 AM 60.0650 34.5610 78° East 431 496 37,000  Level FlightAware ADS-B
Tue 11:36:01 AM 60.0800 34.7030 78° East 431 496 37,000  Level FlightAware ADS-B
Tue 11:36:31 AM 60.0920 34.8210 78° East 432 497 37,000  Level FlightAware ADS-B
Tue 11:37:12 AM 60.1080 34.9800 79° East 433 498 37,000  Level FlightAware ADS-B
Tue 11:37:47 AM 60.1210 35.1160 79° East 434 499 37,000  Level FlightAware ADS-B
Tue 11:38:27 AM 60.1370 35.2750 79° East 433 498 37,000  Level FlightAware ADS-B
Tue 11:39:08 AM 60.1520 35.4350 79° East 432 497 37,000  Level FlightAware ADS-B
Tue 11:39:42 AM 60.1650 35.5670 79° East 431 496 37,000  Level FlightAware ADS-B
Tue 11:40:22 AM 60.1800 35.7270 79° East 432 497 37,000  Level FlightAware ADS-B
Tue 11:40:57 AM 60.1930 35.8640 79° East 432 497 37,000  Level FlightAware ADS-B
Tue 11:41:27 AM 60.2040 35.9790 79° East 433 498 37,000  Level FlightAware ADS-B
Tue 11:42:02 AM 60.2170 36.1180 79° East 434 499 37,000  Level FlightAware ADS-B
Tue 11:42:39 AM 60.2290 36.2580 80° East 435 501 37,000  Level FlightAware ADS-B
Tue 11:43:12 AM 60.2420 36.3990 79° East 436 502 37,000  Level FlightAware ADS-B
Tue 11:43:47 AM 60.2550 36.5370 79° East 437 503 37,000  Level FlightAware ADS-B
Tue 11:44:22 AM 60.2670 36.6760 80° East 438 504 37,000  Level FlightAware ADS-B
Tue 11:45:02 AM 60.2810 36.8400 80° East 439 505 37,000  Level FlightAware ADS-B
Tue 11:45:32 AM 60.2910 36.9590 80° East 440 506 37,000  Level FlightAware ADS-B
Tue 11:46:07 AM 60.3030 37.1010 80° East 442 509 37,000  Level FlightAware ADS-B
Tue 11:46:43 AM 60.3150 37.2420 80° East 443 510 37,000  Level FlightAware ADS-B
Tue 11:47:22 AM 60.3290 37.4060 80° East 445 512 37,000  Level FlightAware ADS-B
Tue 11:47:57 AM 60.3400 37.5500 81° East 445 512 37,000  Level FlightAware ADS-B
Tue 11:48:32 AM 60.3520 37.6920 80° East 444 511 37,000  Level FlightAware ADS-B
Tue 11:49:02 AM 60.3610 37.8140 81° East 443 510 37,000  Level FlightAware ADS-B
Tue 11:49:37 AM 60.3720 37.9440 80° East 443 510 37,000  Level FlightAware ADS-B
Tue 11:50:18 AM 60.3850 38.1190 81° East 443 510 37,000  Level FlightAware ADS-B
Tue 11:50:51 AM 60.3940 38.2390 81° East 442 509 37,000  Level FlightAware ADS-B
Tue 11:51:31 AM 60.4050 38.3910 82° East 442 509 37,000  Level FlightAware ADS-B
Tue 11:52:04 AM 60.4150 38.5190 81° East 443 510 37,000  Level FlightAware ADS-B
Tue 11:52:47 AM 60.4270 38.6940 82° East 442 509 37,000  Level FlightAware ADS-B
Tue 11:53:25 AM 60.4380 38.8490 82° East 442 509 37,000  Level FlightAware ADS-B
Tue 11:53:56 AM 60.4470 38.9730 82° East 442 509 37,000  Level FlightAware ADS-B
Tue 11:54:35 AM 60.4580 39.1350 82° East 442 509 37,000  Level FlightAware ADS-B
Tue 11:55:09 AM 60.4670 39.2710 82° East 442 509 37,000  Level FlightAware ADS-B
Tue 11:55:43 AM 60.4760 39.4030 82° East 442 509 37,000  Level FlightAware ADS-B
Tue 11:56:16 AM 60.4860 39.5480 82° East 440 506 37,000  Level FlightAware ADS-B
Tue 11:56:55 AM 60.4950 39.6950 83° East 439 505 37,000  Level FlightAware ADS-B
Tue 11:57:29 AM 60.5040 39.8270 82° East 438 504 37,000  Level FlightAware ADS-B
Tue 11:58:05 AM 60.5140 39.9930 83° East 439 505 37,000  Level FlightAware ADS-B
Tue 11:58:44 AM 60.5230 40.1480 83° East 440 506 37,000  Level FlightAware ADS-B
Tue 11:59:22 AM 60.5330 40.3090 83° East 439 505 37,000  Level FlightAware ADS-B
Tue 11:59:57 AM 60.5410 40.4390 83° East 439 505 37,000  Level FlightAware ADS-B
Tue 12:00:40 PM 60.5500 40.6110 84° East 437 503 37,000  Level FlightAware ADS-B
Tue 12:01:18 PM 60.5600 40.7730 83° East 437 503 37,000  Level FlightAware ADS-B
Tue 12:01:55 PM 60.5680 40.9290 84° East 436 502 37,000  Level FlightAware ADS-B
Tue 12:02:34 PM 60.5770 41.0920 84° East 436 502 37,000  Level FlightAware ADS-B
Tue 12:03:14 PM 60.5900 41.2540 81° East 435 501 37,000  Level FlightAware ADS-B
Tue 12:03:48 PM 60.6070 41.3810 75° East 434 499 37,000  Level FlightAware ADS-B
Tue 12:04:27 PM 60.6280 41.5360 74° East 435 501 37,000  Level FlightAware ADS-B
Tue 12:05:03 PM 60.6460 41.6710 75° East 436 502 37,000  Level FlightAware ADS-B
Tue 12:05:47 PM 60.6710 41.8490 74° East 435 501 37,000  Level FlightAware ADS-B
Tue 12:06:28 PM 60.6980 42.0500 75° East 431 496 37,000  Level FlightAware ADS-B
Tue 12:07:03 PM 60.7160 42.1870 75° East 430 495 37,000  Level FlightAware ADS-B
Tue 12:07:38 PM 60.7340 42.3250 75° East 428 493 37,000  Level FlightAware ADS-B
Tue 12:08:13 PM 60.7510 42.4580 75° East 426 490 37,000  Level FlightAware ADS-B
Tue 12:08:55 PM 60.7710 42.6120 75° East 425 489 37,000  Level FlightAware ADS-B
Tue 12:09:28 PM 60.7890 42.7500 75° East 425 489 37,000  Level FlightAware ADS-B
Tue 12:10:03 PM 60.8050 42.8790 76° East 426 490 37,000  Level FlightAware ADS-B
Tue 12:10:41 PM 60.8220 43.0050 74° East 426 490 37,000  Level FlightAware ADS-B
Tue 12:11:19 PM 60.8380 43.1310 75° East 426 490 37,000  Level FlightAware ADS-B
Tue 12:11:55 PM 60.8540 43.2510 75° East 426 490 37,000  Level FlightAware ADS-B
Tue 12:12:31 PM 60.8690 43.3710 76° East 426 490 37,000  Level FlightAware ADS-B
Tue 12:13:05 PM 60.8840 43.4840 75° East 426 490 37,000  Level FlightAware ADS-B
Tue 12:13:41 PM 60.9000 43.6030 74° East 426 490 37,000  Level FlightAware ADS-B
Tue 12:16:00 PM 60.9325 44.1954 83° East  Level Estimated
Tue 12:16:40 PM 60.9770 44.2000 83° East 426 490 37,000  Level FlightAware ADS-B
Tue 12:17:16 PM 60.9930 44.3200 75° East 426 490 37,000  Level FlightAware ADS-B
Tue 12:19:00 PM 61.0151 44.7649 84° East  Level Estimated
Tue 12:19:05 PM 61.0400 44.6840 84° East 426 490 37,000  Level FlightAware ADS-B
Tue 12:21:00 PM 61.0629 45.1770 84° East  Level Estimated
Tue 12:22:00 PM 61.0742 45.4345 85° East  Level Estimated
Tue 12:23:00 PM 61.0849 45.6922 85° East  Level Estimated
Tue 12:24:00 PM 61.0952 45.9501 85° East  Level Estimated
Tue 12:25:00 PM 61.1050 46.2081 85° East  Level Estimated
Tue 12:26:00 PM 61.1143 46.4663 86° East  Level Estimated
Tue 12:27:00 PM 61.1231 46.7246 86° East  Level Estimated
Tue 12:28:00 PM 61.1314 46.9831 86° East  Level Estimated
Tue 12:29:00 PM 61.1392 47.2417 86° East  Level Estimated
Tue 12:30:00 PM 61.1465 47.5004 87° East  Level Estimated
Tue 12:31:00 PM 61.1533 47.7593 87° East  Level Estimated
Tue 12:31:30 PM 61.3910 48.0980 87° East 442 509 37,000  Level FlightAware ADS-B
Tue 12:32:05 PM 61.4060 48.2360 77° East 443 510 37,000  Level FlightAware ADS-B
Tue 12:32:45 PM 61.4220 48.4000 78° East 441 507 37,000  Level FlightAware ADS-B
Tue 12:33:30 PM 61.4410 48.5790 77° East 441 507 37,000  Level FlightAware ADS-B
Tue 12:34:01 PM 61.4550 48.7230 78° East 440 506 37,000  Level FlightAware ADS-B
Tue 12:35:06 PM 61.4810 48.9880 78° East 440 506 37,000  Level FlightAware ADS-B
Tue 12:35:58 PM 61.5000 49.1820 78° East 440 506 37,000  Level FlightAware ADS-B
Tue 12:36:34 PM 61.5130 49.3100 78° East 440 506 37,000  Level FlightAware ADS-B
Tue 12:37:11 PM 61.5290 49.4970 80° East 437 503 37,000  Level FlightAware ADS-B
Tue 12:37:46 PM 61.5420 49.6410 79° East 437 503 37,000  Level FlightAware ADS-B
Tue 12:38:26 PM 61.5580 49.8160 79° East 438 504 37,000  Level FlightAware ADS-B
Tue 12:39:16 PM 61.5760 50.0170 79° East 439 505 37,000  Level FlightAware ADS-B
Tue 12:39:51 PM 61.5890 50.1680 80° East 440 506 37,000  Level FlightAware ADS-B
Tue 12:40:26 PM 61.6030 50.3250 79° East 438 504 37,000  Level FlightAware ADS-B
Tue 12:41:02 PM 61.6150 50.4650 80° East 435 501 37,000  Level FlightAware ADS-B
Tue 12:41:39 PM 61.6260 50.5950 80° East 435 501 37,000  Level FlightAware ADS-B
Tue 12:42:14 PM 61.6380 50.7400 80° East 434 499 37,000  Level FlightAware ADS-B
Tue 12:42:54 PM 61.6490 50.9110 82° East 436 502 37,000  Level FlightAware ADS-B
Tue 12:43:31 PM 61.6530 51.0570 87° East 435 501 37,000  Level FlightAware ADS-B
Tue 12:44:08 PM 61.6580 51.2260 86° East 435 501 37,000  Level FlightAware ADS-B
Tue 12:44:39 PM 61.6610 51.3410 87° East 436 502 37,000  Level FlightAware ADS-B
Tue 12:45:15 PM 61.6660 51.5030 86° East 436 502 37,000  Level FlightAware ADS-B
Tue 12:45:50 PM 61.6700 51.6530 87° East 436 502 37,000  Level FlightAware ADS-B
Tue 12:46:25 PM 61.6730 51.8030 88° East 436 502 37,000  Level FlightAware ADS-B
Tue 12:46:56 PM 61.6760 51.9320 87° East 436 502 37,000  Level FlightAware ADS-B
Tue 12:47:35 PM 61.6800 52.0960 87° East 436 502 37,000  Level FlightAware ADS-B
Tue 12:48:11 PM 61.6830 52.2480 88° East 436 502 37,000  Level FlightAware ADS-B
Tue 12:48:45 PM 61.6860 52.3870 87° East 437 503 37,000  Level FlightAware ADS-B
Tue 12:49:24 PM 61.6890 52.5470 88° East 437 503 37,000  Level FlightAware ADS-B
Tue 12:49:54 PM 61.6910 52.6770 88° East 438 504 37,000  Level FlightAware ADS-B
Tue 12:50:27 PM 61.6940 52.8270 88° East 438 504 37,000  Level FlightAware ADS-B
Tue 12:51:06 PM 61.6960 52.9920 88° East 439 505 37,000  Level FlightAware ADS-B
Tue 12:51:41 PM 61.6990 53.1380 87° East 439 505 37,000  Level FlightAware ADS-B
Tue 12:52:12 PM 61.7010 53.2860 88° East 439 505 37,000  Level FlightAware ADS-B
Tue 12:52:53 PM 61.7030 53.4520 88° East 438 504 37,000  Level FlightAware ADS-B
Tue 12:53:39 PM 61.7050 53.6350 89° East 437 503 37,000  Level FlightAware ADS-B
Tue 12:54:15 PM 61.7060 53.7980 89° East 437 503 37,000  Level FlightAware ADS-B
Tue 12:54:53 PM 61.7080 53.9630 88° East 438 504 37,000  Level FlightAware ADS-B
Tue 12:55:24 PM 61.7090 54.0920 89° East 438 504 37,000  Level FlightAware ADS-B
Tue 12:56:02 PM 61.7100 54.2660 89° East 437 503 37,000  Level FlightAware ADS-B
Tue 12:56:41 PM 61.7110 54.4030 89° East 437 503 37,000  Level FlightAware ADS-B
Tue 12:57:18 PM 61.7120 54.5940 89° East 438 504 37,000  Level FlightAware ADS-B
Tue 12:58:02 PM 61.7120 54.7690 90° East 438 504 37,000  Level FlightAware ADS-B
Tue 12:58:42 PM 61.7120 54.9370 90° East 438 504 37,000  Level FlightAware ADS-B
Tue 12:59:16 PM 61.7130 55.0810 89° East 437 503 37,000  Level FlightAware ADS-B
Tue 12:59:54 PM 61.7120 55.2370 91° East 436 502 37,000  Level FlightAware ADS-B
Tue 01:00:40 PM 61.7120 55.4370 90° East 434 499 37,000  Level FlightAware ADS-B
Tue 01:01:28 PM 61.7110 55.6600 90° East 433 498 37,000  Level FlightAware ADS-B
Tue 01:02:13 PM 61.7100 55.8480 91° East 434 499 37,000  Level FlightAware ADS-B
Tue 01:02:43 PM 61.7100 55.9600 90° East 434 499 37,000  Level FlightAware ADS-B
Tue 01:03:17 PM 61.7090 56.0730 91° East 434 499 37,000  Level FlightAware ADS-B
Tue 01:03:58 PM 61.7070 56.2930 91° East 435 501 37,000  Level FlightAware ADS-B
Tue 01:04:33 PM 61.7060 56.4380 91° East 436 502 37,000  Level FlightAware ADS-B
Tue 01:05:13 PM 61.7040 56.6030 91° East 437 503 37,000  Level FlightAware ADS-B
Tue 01:05:47 PM 61.7030 56.7340 91° East 438 504 37,000  Level FlightAware ADS-B
Tue 01:06:18 PM 61.7010 56.8460 92° East 437 503 37,000  Level FlightAware ADS-B
Tue 01:06:54 PM 61.6960 57.0290 93° East 438 504 37,000  Level FlightAware ADS-B
Tue 01:07:36 PM 61.6900 57.1920 94° East 439 505 37,000  Level FlightAware ADS-B
Tue 01:08:15 PM 61.6830 57.3560 95° East 438 504 37,000  Level FlightAware ADS-B
Tue 01:08:53 PM 61.6760 57.5230 95° East 439 505 37,000  Level FlightAware ADS-B
Tue 01:09:23 PM 61.6710 57.6530 95° East 438 504 37,000  Level FlightAware ADS-B
Tue 01:09:56 PM 61.6660 57.7690 95° East 438 504 37,000  Level FlightAware ADS-B
Tue 01:10:35 PM 61.6590 57.9340 95° East 439 505 37,000  Level FlightAware ADS-B
Tue 01:11:24 PM 61.6500 58.1450 95° East 440 506 37,000  Level FlightAware ADS-B
Tue 01:11:56 PM 61.6430 58.2870 96° East 442 509 37,000  Level FlightAware ADS-B
Tue 01:12:41 PM 61.6330 58.4840 96° East 442 509 37,000  Level FlightAware ADS-B
Tue 01:13:16 PM 61.6260 58.6340 96° East 443 510 37,000  Level FlightAware ADS-B
Tue 01:13:54 PM 61.6180 58.8030 96° East 442 509 37,000  Level FlightAware ADS-B
Tue 01:14:28 PM 61.6100 58.9600 96° East 442 509 37,000  Level FlightAware ADS-B
Tue 01:15:01 PM 61.6040 59.0820 96° East 442 509 37,000  Level FlightAware ADS-B
Tue 01:15:49 PM 61.5930 59.2870 96° East 442 509 37,000  Level FlightAware ADS-B
Tue 01:16:26 PM 61.5870 59.4210 95° East 442 509 37,000  Level FlightAware ADS-B
Tue 01:17:03 PM 61.5800 59.5560 96° East 442 509 37,000  Level FlightAware ADS-B
Tue 01:17:39 PM 61.5730 59.6870 96° East 442 509 37,000  Level FlightAware ADS-B
Tue 01:18:18 PM 61.5600 59.9150 97° East 445 512 37,000  Level FlightAware ADS-B
Tue 01:18:54 PM 61.5530 60.0470 96° East 445 512 37,000  Level FlightAware ADS-B
Tue 01:19:30 PM 61.5460 60.1780 96° East 445 512 37,000  Level FlightAware ADS-B
Tue 01:20:06 PM 61.5400 60.3100 95° East 445 512 37,000  Level FlightAware ADS-B
Tue 01:20:42 PM 61.5330 60.4410 96° East 445 512 37,000  Level FlightAware ADS-B
Tue 01:21:16 PM 61.5270 60.5650 96° East 445 512 37,000  Level FlightAware ADS-B
Tue 01:21:52 PM 61.5200 60.6970 96° East 445 512 37,000  Level FlightAware ADS-B
Tue 01:22:28 PM 61.5140 60.8280 95° East 445 512 37,000  Level FlightAware ADS-B
Tue 01:23:05 PM 61.5070 60.9630 96° East 445 512 37,000  Level FlightAware ADS-B
Tue 01:23:39 PM 61.5010 61.0870 96° East 445 512 37,000  Level FlightAware ADS-B
Tue 01:24:15 PM 61.4940 61.2180 96° East 445 512 37,000  Level FlightAware ADS-B
Tue 01:24:51 PM 61.4880 61.3500 95° East 445 512 37,000  Level FlightAware ADS-B
Tue 01:25:28 PM 61.4810 61.4840 96° East 445 512 37,000  Level FlightAware ADS-B
Tue 01:26:04 PM 61.4740 61.6160 96° East 445 512 37,000  Level FlightAware ADS-B
Tue 01:26:41 PM 61.4670 61.7500 96° East 445 512 37,000  Level FlightAware ADS-B
Tue 01:27:15 PM 61.4610 61.8740 96° East 445 512 37,000  Level FlightAware ADS-B
Tue 01:29:00 PM 61.4225 62.3247 100° East  Level Estimated
Tue 01:30:00 PM 61.3998 62.5818 100° East  Level Estimated
Tue 01:31:00 PM 61.3766 62.8385 101° East  Level Estimated
Tue 01:32:00 PM 61.3530 63.0948 101° East  Level Estimated
Tue 01:33:00 PM 61.3288 63.3507 101° East  Level Estimated
Tue 01:34:00 PM 61.3042 63.6062 101° East  Level Estimated
Tue 01:35:00 PM 61.2791 63.8613 101° East  Level Estimated
Tue 01:36:00 PM 61.2536 64.1160 102° East  Level Estimated
Tue 01:37:00 PM 61.2275 64.3702 102° East  Level Estimated
Tue 01:38:00 PM 61.2010 64.6241 102° East  Level Estimated
Tue 01:39:00 PM 61.1740 64.8775 102° East  Level Estimated
Tue 01:40:00 PM 61.1465 65.1305 103° East  Level Estimated
Tue 01:41:00 PM 61.1186 65.3830 103° East  Level Estimated
Tue 01:42:00 PM 61.0902 65.6351 103° East  Level Estimated
Tue 01:43:00 PM 61.0613 65.8867 103° East  Level Estimated
Tue 01:44:00 PM 61.0320 66.1379 103° East  Level Estimated
Tue 01:44:06 PM 60.8880 66.4690 103° East 466 536 37,000  Level FlightAware ADS-B
Tue 01:44:44 PM 60.8610 66.6430 108° East 467 537 37,000  Level FlightAware ADS-B
Tue 01:45:21 PM 60.8380 66.7890 108° East 467 537 37,000  Level FlightAware ADS-B
Tue 01:46:10 PM 60.8040 67.0070 108° East 467 537 37,000  Level FlightAware ADS-B
Tue 01:46:51 PM 60.7760 67.1800 108° East 468 539 37,000  Level FlightAware ADS-B
Tue 01:47:32 PM 60.7450 67.3680 109° East 467 537 37,000  Level FlightAware ADS-B
Tue 01:48:08 PM 60.7210 67.5170 108° East 467 537 37,000  Level FlightAware ADS-B
Tue 01:48:54 PM 60.6930 67.6890 108° East 468 539 37,000  Level FlightAware ADS-B
Tue 01:49:36 PM 60.6600 67.8820 109° East 468 539 37,000  Level FlightAware ADS-B
Tue 01:50:12 PM 60.6360 68.0230 109° East 470 541 37,000  Level FlightAware ADS-B
Tue 01:50:54 PM 60.6060 68.1970 109° East 471 542 37,000  Level FlightAware ADS-B
Tue 01:51:30 PM 60.5820 68.3370 109° East 473 544 37,000  Level FlightAware ADS-B
Tue 01:52:06 PM 60.5550 68.4960 109° East 474 545 37,000  Level FlightAware ADS-B
Tue 01:52:48 PM 60.5220 68.6800 110° East 475 547 37,000  Level FlightAware ADS-B
Tue 01:53:29 PM 60.4960 68.8290 109° East 475 547 37,000  Level FlightAware ADS-B
Tue 01:54:24 PM 60.4520 69.0730 110° East 474 545 37,000  Level FlightAware ADS-B
Tue 01:54:57 PM 60.4260 69.2180 110° East 473 544 37,000  Level FlightAware ADS-B
Tue 01:55:31 PM 60.4000 69.3600 110° East 475 547 37,000  Level FlightAware ADS-B
Tue 01:56:07 PM 60.3740 69.5070 110° East 476 548 37,000  Level FlightAware ADS-B
Tue 01:56:46 PM 60.3440 69.6710 110° East 476 548 37,000  Level FlightAware ADS-B
Tue 01:57:32 PM 60.3110 69.8450 111° Southeast 477 549 37,000  Level FlightAware ADS-B
Tue 01:58:17 PM 60.2750 70.0420 110° East 476 548 37,000  Level FlightAware ADS-B
Tue 01:59:26 PM 60.2190 70.3330 111° Southeast 481 554 37,000  Level FlightAware ADS-B
Tue 02:00:02 PM 60.1900 70.4860 111° Southeast 482 555 37,000  Level FlightAware ADS-B
Tue 02:00:39 PM 60.1640 70.6210 111° Southeast 482 555 37,000  Level FlightAware ADS-B
Tue 02:01:23 PM 60.1260 70.8130 112° Southeast 482 555 37,000  Level FlightAware ADS-B
Tue 02:02:01 PM 60.0930 70.9820 111° Southeast 481 554 37,000  Level FlightAware ADS-B
Tue 02:02:31 PM 60.0690 71.1040 111° Southeast 479 551 37,000  Level FlightAware ADS-B
Tue 02:03:06 PM 60.0430 71.2330 112° Southeast 479 551 37,000  Level FlightAware ADS-B
Tue 02:03:42 PM 60.0100 71.3970 112° Southeast 477 549 37,000  Level FlightAware ADS-B
Tue 02:04:18 PM 59.9850 71.5190 112° Southeast 477 549 37,000  Level FlightAware ADS-B
Tue 02:05:00 PM 59.9490 71.6990 112° Southeast 476 548 37,000  Level FlightAware ADS-B
Tue 02:05:36 PM 59.9180 71.8470 113° Southeast 477 549 37,000  Level FlightAware ADS-B
Tue 02:06:13 PM 59.8840 72.0100 113° Southeast 477 549 37,000  Level FlightAware ADS-B
Tue 02:06:43 PM 59.8580 72.1330 113° Southeast 478 550 37,000  Level FlightAware ADS-B
Tue 02:07:18 PM 59.8280 72.2760 113° Southeast 479 551 37,000  Level FlightAware ADS-B
Tue 02:07:56 PM 59.7980 72.4210 112° Southeast 480 552 37,000  Level FlightAware ADS-B
Tue 02:08:29 PM 59.7670 72.5640 113° Southeast 482 555 37,000  Level FlightAware ADS-B
Tue 02:09:08 PM 59.7340 72.7180 113° Southeast 483 556 37,000  Level FlightAware ADS-B
Tue 02:09:39 PM 59.7070 72.8440 113° Southeast 484 557 37,000  Level FlightAware ADS-B
Tue 02:10:15 PM 59.6740 72.9940 113° Southeast 482 555 37,000  Level FlightAware ADS-B
Tue 02:10:50 PM 59.6430 73.1360 113° Southeast 481 554 37,000  Level FlightAware ADS-B
Tue 02:11:25 PM 59.6130 73.2750 113° Southeast 482 555 37,000  Level FlightAware ADS-B
Tue 02:12:00 PM 59.5810 73.4180 114° Southeast 481 554 37,000  Level FlightAware ADS-B
Tue 02:12:30 PM 59.5540 73.5390 114° Southeast 481 554 37,000  Level FlightAware ADS-B
Tue 02:13:03 PM 59.5310 73.6400 114° Southeast 434 499 37,000  Level FlightAware ADS-B
Tue 02:13:45 PM 59.4950 73.8000 114° Southeast 458 527 37,000  Level FlightAware ADS-B
Tue 02:14:16 PM 59.4590 73.9590 114° Southeast 489 563 37,000  Level FlightAware ADS-B
Tue 02:14:56 PM 59.4270 74.0980 114° Southeast 489 563 37,000  Level FlightAware ADS-B
Tue 02:15:32 PM 59.3990 74.2220 114° Southeast 489 563 37,000  Level FlightAware ADS-B
Tue 02:16:08 PM 59.3710 74.3460 114° Southeast 489 563 37,000  Level FlightAware ADS-B
Tue 02:16:56 PM 59.3110 74.5740 117° Southeast 487 560 37,000  Level FlightAware ADS-B
Tue 02:17:33 PM 59.2560 74.7170 127° Southeast 402 463 37,000  Level FlightAware ADS-B
Tue 02:18:54 PM 59.1470 75.0210 125° Southeast 488 562 37,000  Level FlightAware ADS-B
Tue 02:19:36 PM 59.1030 75.1400 126° Southeast 488 562 37,000  Level FlightAware ADS-B
Tue 02:20:08 PM 59.0510 75.2810 126° Southeast 489 563 37,000  Level FlightAware ADS-B
Tue 02:20:48 PM 58.9980 75.4260 125° Southeast 490 564 37,000  Level FlightAware ADS-B
Tue 02:21:23 PM 58.9540 75.5460 125° Southeast 491 565 37,000  Level FlightAware ADS-B
Tue 02:21:58 PM 58.9060 75.6750 126° Southeast 492 566 37,000  Level FlightAware ADS-B
Tue 02:22:38 PM 58.8540 75.8140 126° Southeast 493 567 37,000  Level FlightAware ADS-B
Tue 02:23:28 PM 58.7890 75.9850 126° Southeast 493 567 37,000  Level FlightAware ADS-B
Tue 02:24:06 PM 58.7460 76.1000 126° Southeast 493 567 37,000  Level FlightAware ADS-B
Tue 02:24:54 PM 58.6800 76.2720 126° Southeast 490 564 37,000  Level FlightAware ADS-B
Tue 02:25:38 PM 58.6250 76.4170 126° Southeast 489 563 37,000  Level FlightAware ADS-B
Tue 02:26:30 PM 58.5610 76.6120 122° Southeast 490 564 37,000  Level FlightAware ADS-B
Tue 02:27:03 PM 58.5240 76.7690 114° Southeast 488 562 37,000  Level FlightAware ADS-B
Tue 02:27:38 PM 58.4900 76.9020 116° Southeast 487 560 37,000  Level FlightAware ADS-B
Tue 02:28:18 PM 58.4500 77.0580 116° Southeast 486 559 37,000  Level FlightAware ADS-B
Tue 02:28:55 PM 58.4190 77.1790 116° Southeast 486 559 37,000  Level FlightAware ADS-B
Tue 02:29:31 PM 58.3890 77.2970 116° Southeast 486 559 37,000  Level FlightAware ADS-B
Tue 02:30:07 PM 58.3590 77.4150 116° Southeast 486 559 37,000  Level FlightAware ADS-B
Tue 02:30:43 PM 58.3290 77.5330 116° Southeast 486 559 37,000  Level FlightAware ADS-B
Tue 02:31:19 PM 58.2990 77.6510 116° Southeast 486 559 37,000  Level FlightAware ADS-B
Tue 02:31:53 PM 58.2370 77.8760 118° Southeast 487 560 37,000  Level FlightAware ADS-B
Tue 02:32:28 PM 58.2010 78.0100 117° Southeast 488 562 37,000  Level FlightAware ADS-B
Tue 02:32:58 PM 58.1700 78.1270 117° Southeast 488 562 37,000  Level FlightAware ADS-B
Tue 02:33:38 PM 58.1300 78.2750 117° Southeast 488 562 37,000  Level FlightAware ADS-B
Tue 02:34:18 PM 58.0880 78.4310 117° Southeast 490 564 37,000  Level FlightAware ADS-B
Tue 02:34:53 PM 58.0510 78.5650 118° Southeast 490 564 37,000  Level FlightAware ADS-B
Tue 02:35:28 PM 58.0150 78.6970 117° Southeast 491 565 37,000  Level FlightAware ADS-B
Tue 02:36:03 PM 57.9780 78.8290 118° Southeast 489 563 37,000  Level FlightAware ADS-B
Tue 02:36:38 PM 57.9420 78.9610 117° Southeast 489 563 37,000  Level FlightAware ADS-B
Tue 02:37:18 PM 57.8990 79.1130 118° Southeast 490 564 37,000  Level FlightAware ADS-B
Tue 02:37:53 PM 57.8640 79.2370 118° Southeast 491 565 37,000  Level FlightAware ADS-B
Tue 02:38:28 PM 57.8260 79.3720 118° Southeast 491 565 37,000  Level FlightAware ADS-B
Tue 02:39:03 PM 57.7880 79.5050 118° Southeast 490 564 37,000  Level FlightAware ADS-B
Tue 02:39:38 PM 57.7510 79.6360 118° Southeast 490 564 37,000  Level FlightAware ADS-B
Tue 02:40:23 PM 57.7090 79.7820 118° Southeast 489 563 37,000  Level FlightAware ADS-B
Tue 02:40:58 PM 57.6640 79.9320 119° Southeast 491 565 37,000  Level FlightAware ADS-B
Tue 02:41:33 PM 57.6260 80.0620 119° Southeast 491 565 37,000  Level FlightAware ADS-B
Tue 02:42:08 PM 57.5880 80.1900 119° Southeast 492 566 37,000  Level FlightAware ADS-B
Tue 02:42:43 PM 57.5490 80.3200 119° Southeast 493 567 37,000  Level FlightAware ADS-B
Tue 02:43:18 PM 57.5100 80.4500 119° Southeast 493 567 37,000  Level FlightAware ADS-B
Tue 02:43:55 PM 57.4690 80.5860 119° Southeast 494 568 37,000  Level FlightAware ADS-B
Tue 02:44:28 PM 57.4310 80.7100 120° Southeast 493 567 37,000  Level FlightAware ADS-B
Tue 02:45:03 PM 57.3930 80.8330 120° Southeast 492 566 37,000  Level FlightAware ADS-B
Tue 02:45:38 PM 57.3530 80.9650 119° Southeast 491 565 37,000  Level FlightAware ADS-B
Tue 02:46:18 PM 57.3140 81.0910 120° Southeast 490 564 37,000  Level FlightAware ADS-B
Tue 02:46:53 PM 57.2700 81.2330 120° Southeast 490 564 37,000  Level FlightAware ADS-B
Tue 02:47:33 PM 57.2230 81.3800 121° Southeast 491 565 37,000  Level FlightAware ADS-B
Tue 02:48:03 PM 57.1890 81.4900 120° Southeast 492 566 37,000  Level FlightAware ADS-B
Tue 02:48:38 PM 57.1500 81.6140 120° Southeast 494 568 37,000  Level FlightAware ADS-B
Tue 02:49:13 PM 57.1080 81.7440 121° Southeast 495 570 37,000  Level FlightAware ADS-B
Tue 02:49:48 PM 57.0690 81.8680 120° Southeast 495 570 37,000  Level FlightAware ADS-B
Tue 02:50:23 PM 57.0290 81.9930 120° Southeast 494 568 37,000  Level FlightAware ADS-B
Tue 02:50:58 PM 56.9900 82.1210 119° Southeast 494 568 37,000  Level FlightAware ADS-B
Tue 02:51:33 PM 56.9530 82.2530 117° Southeast 493 567 37,000  Level FlightAware ADS-B
Tue 02:52:13 PM 56.9120 82.3990 117° Southeast 492 566 37,000  Level FlightAware ADS-B
Tue 02:52:43 PM 56.8800 82.5130 117° Southeast 492 566 37,000  Level FlightAware ADS-B
Tue 02:53:19 PM 56.8430 82.6420 118° Southeast 493 567 37,000  Level FlightAware ADS-B
Tue 02:53:58 PM 56.8010 82.7880 118° Southeast 494 568 37,000  Level FlightAware ADS-B
Tue 02:54:28 PM 56.7690 82.9000 117° Southeast 496 571 37,000  Level FlightAware ADS-B
Tue 02:55:03 PM 56.7320 83.0270 118° Southeast 496 571 37,000  Level FlightAware ADS-B
Tue 02:55:38 PM 56.6940 83.1570 118° Southeast 495 570 37,000  Level FlightAware ADS-B
Tue 02:56:13 PM 56.6570 83.2840 118° Southeast 496 571 37,000  Level FlightAware ADS-B
Tue 02:56:49 PM 56.6190 83.4140 118° Southeast 495 570 37,000  Level FlightAware ADS-B
Tue 02:57:23 PM 56.5810 83.5400 119° Southeast 496 571 37,000  Level FlightAware ADS-B
Tue 02:58:03 PM 56.5370 83.6880 118° Southeast 495 570 37,000  Level FlightAware ADS-B
Tue 02:58:33 PM 56.5040 83.7990 118° Southeast 496 571 37,000  Level FlightAware ADS-B
Tue 02:59:08 PM 56.4670 83.9240 118° Southeast 496 571 37,000  Level FlightAware ADS-B
Tue 02:59:43 PM 56.4280 84.0520 119° Southeast 496 571 37,000  Level FlightAware ADS-B
Tue 03:00:23 PM 56.3840 84.1960 119° Southeast 498 573 37,000  Level FlightAware ADS-B
Tue 03:00:53 PM 56.3500 84.3050 119° Southeast 497 572 37,000  Level FlightAware ADS-B
Tue 03:01:28 PM 56.3120 84.4300 119° Southeast 497 572 37,000  Level FlightAware ADS-B
Tue 03:02:08 PM 56.2670 84.5770 119° Southeast 497 572 37,000  Level FlightAware ADS-B
Tue 03:02:43 PM 56.2280 84.7020 119° Southeast 497 572 37,000  Level FlightAware ADS-B
Tue 03:03:13 PM 56.1940 84.8090 120° Southeast 496 571 37,000  Level FlightAware ADS-B
Tue 03:03:53 PM 56.1510 84.9470 119° Southeast 496 571 37,000  Level FlightAware ADS-B
Tue 03:04:28 PM 56.1120 85.0710 119° Southeast 495 570 37,000  Level FlightAware ADS-B
Tue 03:05:08 PM 56.0650 85.2170 120° Southeast 491 565 37,000  Level FlightAware ADS-B
Tue 03:05:43 PM 56.0250 85.3420 120° Southeast 491 565 37,000  Level FlightAware ADS-B
Tue 03:06:18 PM 55.9870 85.4620 119° Southeast 490 564 37,000  Level FlightAware ADS-B
Tue 03:06:54 PM 55.9470 85.5860 120° Southeast 489 563 37,000  Level FlightAware ADS-B
Tue 03:07:28 PM 55.9070 85.7050 121° Southeast 488 562 37,000  Level FlightAware ADS-B
Tue 03:08:03 PM 55.8650 85.8270 121° Southeast 489 563 37,000  Level FlightAware ADS-B
Tue 03:08:38 PM 55.8250 85.9440 121° Southeast 489 563 37,000  Level FlightAware ADS-B
Tue 03:09:13 PM 55.7830 86.0670 121° Southeast 490 564 37,000  Level FlightAware ADS-B
Tue 03:09:48 PM 55.7430 86.1850 121° Southeast 491 565 37,000  Level FlightAware ADS-B
Tue 03:10:23 PM 55.7010 86.3060 122° Southeast 493 567 37,000  Level FlightAware ADS-B
Tue 03:10:58 PM 55.6580 86.4290 122° Southeast 494 568 37,000  Level FlightAware ADS-B
Tue 03:11:43 PM 55.6070 86.5760 122° Southeast 496 571 37,000  Level FlightAware ADS-B
Tue 03:12:18 PM 55.5640 86.6970 122° Southeast 496 571 37,000 171 Level FlightAware ADS-B
Tue 03:12:53 PM 55.5200 86.8220 122° Southeast 496 571 37,200 686 Climbing FlightAware ADS-B
Tue 03:13:28 PM 55.4830 86.9270 122° Southeast 493 567 37,800 1,114 Climbing FlightAware ADS-B
Tue 03:14:03 PM 55.4360 87.0600 122° Southeast 490 564 38,500 1,029 Climbing FlightAware ADS-B
Tue 03:14:38 PM 55.3950 87.1730 123° Southeast 488 562 39,000 429 Climbing FlightAware ADS-B
Tue 03:15:13 PM 55.3510 87.2950 122° Southeast 494 568 39,000  Level FlightAware ADS-B
Tue 03:15:48 PM 55.3090 87.4120 122° Southeast 501 577 39,000  Level FlightAware ADS-B
Tue 03:16:23 PM 55.2670 87.5280 122° Southeast 501 577 39,000  Level FlightAware ADS-B
Tue 03:16:58 PM 55.2210 87.6550 122° Southeast 500 575 39,000  Level FlightAware ADS-B
Tue 03:17:33 PM 55.1790 87.7690 123° Southeast 499 574 39,000  Level FlightAware ADS-B
Tue 03:18:23 PM 55.1160 87.9380 123° Southeast 497 572 39,000  Level FlightAware ADS-B
Tue 03:18:53 PM 55.0840 88.0250 123° Southeast 496 571 39,000  Level FlightAware ADS-B
Tue 03:19:33 PM 55.0280 88.1740 123° Southeast 496 571 39,000  Level FlightAware ADS-B
Tue 03:20:09 PM 54.9850 88.2880 123° Southeast 497 572 39,000  Level FlightAware ADS-B
Tue 03:20:44 PM 54.9390 88.4110 123° Southeast 495 570 39,000  Level FlightAware ADS-B
Tue 03:21:24 PM 54.8890 88.5410 124° Southeast 496 571 39,000  Level FlightAware ADS-B
Tue 03:21:59 PM 54.8460 88.6540 123° Southeast 495 570 39,000  Level FlightAware ADS-B
Tue 03:22:36 PM 54.7990 88.7770 124° Southeast 494 568 39,000  Level FlightAware ADS-B
Tue 03:23:11 PM 54.7530 88.8960 124° Southeast 495 570 39,000  Level FlightAware ADS-B
Tue 03:23:46 PM 54.7090 89.0110 123° Southeast 495 570 39,000  Level FlightAware ADS-B
Tue 03:24:21 PM 54.6690 89.1120 124° Southeast 495 570 39,000  Level FlightAware ADS-B
Tue 03:24:56 PM 54.6230 89.2320 123° Southeast 496 571 39,000  Level FlightAware ADS-B
Tue 03:25:31 PM 54.5770 89.3500 124° Southeast 496 571 39,000  Level FlightAware ADS-B
Tue 03:26:03 PM 54.5350 89.4570 124° Southeast 496 571 39,000  Level FlightAware ADS-B
Tue 03:26:34 PM 54.4940 89.5590 125° Southeast 429 494 39,000  Level FlightAware ADS-B
Tue 03:27:16 PM 54.4410 89.6930 124° Southeast 497 572 39,000  Level FlightAware ADS-B
Tue 03:27:46 PM 54.4020 89.7920 124° Southeast 497 572 39,000  Level FlightAware ADS-B
Tue 03:28:26 PM 54.3500 89.9210 125° Southeast 498 573 39,000  Level FlightAware ADS-B
Tue 03:29:01 PM 54.3080 90.0250 125° Southeast 499 574 39,000  Level FlightAware ADS-B
Tue 03:29:43 PM 54.2480 90.1740 125° Southeast 502 578 39,000  Level FlightAware ADS-B
Tue 03:30:18 PM 54.2010 90.2890 125° Southeast 503 579 39,000  Level FlightAware ADS-B
Tue 03:30:58 PM 54.1480 90.4180 125° Southeast 504 580 39,000  Level FlightAware ADS-B
Tue 03:31:33 PM 54.1030 90.5300 124° Southeast 502 578 39,000  Level FlightAware ADS-B
Tue 03:32:21 PM 54.0390 90.6840 125° Southeast 504 580 39,000  Level FlightAware ADS-B
Tue 03:32:57 PM 53.9940 90.7950 125° Southeast 504 580 39,000  Level FlightAware ADS-B
Tue 03:33:36 PM 53.9400 90.9240 125° Southeast 504 580 39,000  Level FlightAware ADS-B
Tue 03:34:06 PM 53.9040 91.0100 125° Southeast 504 580 39,000  Level FlightAware ADS-B
Tue 03:34:41 PM 53.8520 91.1330 126° Southeast 504 580 39,000  Level FlightAware ADS-B
Tue 03:35:21 PM 53.7970 91.2640 125° Southeast 503 579 39,000  Level FlightAware ADS-B
Tue 03:35:51 PM 53.7580 91.3540 126° Southeast 498 573 39,000  Level FlightAware ADS-B
Tue 03:36:27 PM 53.7110 91.4480 130° Southeast 496 571 39,000  Level FlightAware ADS-B
Tue 03:37:04 PM 53.6460 91.5680 132° Southeast 497 572 39,000  Level FlightAware ADS-B
Tue 03:37:35 PM 53.6010 91.6520 132° Southeast 498 573 39,000  Level FlightAware ADS-B
Tue 03:38:13 PM 53.5510 91.7450 132° Southeast 498 573 39,000  Level FlightAware ADS-B
Tue 03:38:51 PM 53.5010 91.8380 132° Southeast 498 573 39,000  Level FlightAware ADS-B
Tue 03:39:21 PM 53.7110 91.4480 312° West 39,000  Level FlightAware ADS-B
Tue 03:39:51 PM 53.3890 92.0380 132° Southeast 490 564 39,000  Level FlightAware ADS-B
Tue 03:40:28 PM 53.3390 92.1220 135° Southeast 490 564 39,000  Level FlightAware ADS-B
Tue 03:41:04 PM 53.2900 92.2040 135° Southeast 490 564 39,000  Level FlightAware ADS-B
Tue 03:41:40 PM 53.2410 92.2860 135° Southeast 490 564 39,000  Level FlightAware ADS-B
Tue 03:42:16 PM 53.1920 92.3680 135° Southeast 490 564 39,000  Level FlightAware ADS-B
Tue 03:42:52 PM 53.1430 92.4490 135° Southeast 490 564 39,000  Level FlightAware ADS-B
Tue 03:43:21 PM 53.3760 92.0600 315° West 39,000  Level FlightAware ADS-B
Tue 03:43:41 PM 53.0300 92.5960 137° Southeast 489 563 39,000  Level FlightAware ADS-B
Tue 03:44:16 PM 52.9500 92.7170 138° Southeast 489 563 39,000  Level FlightAware ADS-B
Tue 03:45:09 PM 52.8720 92.8370 137° Southeast 490 564 39,000  Level FlightAware ADS-B
Tue 03:45:45 PM 52.8210 92.9150 137° Southeast 490 564 39,000  Level FlightAware ADS-B
Tue 03:46:21 PM 52.7710 92.9930 137° Southeast 490 564 39,000  Level FlightAware ADS-B
Tue 03:46:57 PM 52.7200 93.0720 137° Southeast 490 564 39,000  Level FlightAware ADS-B
Tue 03:47:33 PM 52.6690 93.1500 137° Southeast 490 564 39,000  Level FlightAware ADS-B
Tue 03:48:10 PM 52.6170 93.2300 137° Southeast 490 564 39,000  Level FlightAware ADS-B
Tue 03:48:46 PM 52.5660 93.3080 137° Southeast 490 564 39,000  Level FlightAware ADS-B
Tue 03:49:22 PM 52.5150 93.3850 137° Southeast 490 564 39,000  Level FlightAware ADS-B
Tue 03:49:58 PM 52.4650 93.4630 136° Southeast 490 564 39,000  Level FlightAware ADS-B
Tue 03:50:34 PM 52.4140 93.5410 137° Southeast 490 564 39,000  Level FlightAware ADS-B
Tue 03:51:10 PM 52.3630 93.6180 137° Southeast 490 564 39,000  Level FlightAware ADS-B
Tue 03:51:46 PM 52.3120 93.6960 137° Southeast 490 564 39,000  Level FlightAware ADS-B
Tue 03:52:22 PM 52.2620 93.7730 137° Southeast 490 564 39,000  Level FlightAware ADS-B
Tue 03:52:58 PM 52.2110 93.8500 137° Southeast 490 564 39,000  Level FlightAware ADS-B
Tue 03:53:35 PM 52.1590 93.9290 137° Southeast 490 564 39,000  Level FlightAware ADS-B
Tue 03:54:12 PM 52.1070 94.0090 137° Southeast 490 564 39,000 Level FlightAware ADS-B
Tue 03:56:00 PM 51.9773 94.3082 125° Southeast  Level Estimated
Tue 03:57:00 PM 51.9049 94.4737 125° Southeast  Level Estimated
Tue 03:58:00 PM 51.8323 94.6386 125° Southeast  Level Estimated
Tue 03:59:00 PM 51.7595 94.8030 126° Southeast  Level Estimated
Tue 04:00:00 PM 51.6864 94.9669 126° Southeast  Level Estimated
Tue 04:01:00 PM 51.6131 95.1303 126° Southeast  Level Estimated
Tue 04:02:00 PM 51.5396 95.2931 126° Southeast  Level Estimated
Tue 04:03:00 PM 51.4658 95.4554 126° Southeast  Level Estimated
Tue 04:04:00 PM 51.3919 95.6172 126° Southeast  Level Estimated
Tue 04:05:00 PM 51.3177 95.7784 126° Southeast  Level Estimated
Tue 04:06:00 PM 51.2433 95.9392 126° Southeast  Level Estimated
Tue 04:07:00 PM 51.1686 96.0994 127° Southeast  Level Estimated
Tue 04:08:00 PM 51.0938 96.2591 127° Southeast  Level Estimated
Tue 04:09:00 PM 51.0187 96.4182 127° Southeast  Level Estimated
Tue 04:10:00 PM 50.9434 96.5769 127° Southeast  Level Estimated
Tue 04:11:00 PM 50.8679 96.7350 127° Southeast  Level Estimated
Tue 04:12:00 PM 50.7922 96.8927 127° Southeast  Level Estimated
Tue 04:13:00 PM 50.7163 97.0498 127° Southeast  Level Estimated
Tue 04:14:00 PM 50.6402 97.2064 127° Southeast  Level Estimated
Tue 04:15:00 PM 50.5638 97.3625 128° Southeast  Level Estimated
Tue 04:16:00 PM 50.4873 97.5181 128° Southeast  Level Estimated
Tue 04:17:00 PM 50.4105 97.6732 128° Southeast  Level Estimated
Tue 04:18:00 PM 50.3336 97.8278 128° Southeast  Level Estimated
Tue 04:19:00 PM 50.2564 97.9819 128° Southeast  Level Estimated
Tue 04:20:00 PM 50.1790 98.1355 128° Southeast  Level Estimated
Tue 04:21:00 PM 50.1015 98.2886 128° Southeast  Level Estimated
Tue 04:22:00 PM 50.0237 98.4412 128° Southeast  Level Estimated
Tue 04:23:00 PM 49.9457 98.5933 129° Southeast  Level Estimated
Tue 04:24:00 PM 49.8675 98.7449 129° Southeast  Level Estimated
Tue 04:25:00 PM 49.7892 98.8961 129° Southeast  Level Estimated
Tue 04:26:00 PM 49.7106 99.0467 129° Southeast  Level Estimated
Tue 04:27:00 PM 49.6319 99.1969 129° Southeast  Level Estimated
Tue 04:28:00 PM 49.5529 99.3465 129° Southeast  Level Estimated
Tue 04:29:00 PM 49.4738 99.4957 129° Southeast  Level Estimated
Tue 04:30:00 PM 49.3944 99.6444 129° Southeast  Level Estimated
Tue 04:31:00 PM 49.3149 99.7926 129° Southeast  Level Estimated
Tue 04:32:00 PM 49.2352 99.9404 130° Southeast  Level Estimated
Tue 04:33:00 PM 49.1553 100.0876 130° Southeast  Level Estimated
Tue 04:34:00 PM 49.0752 100.2344 130° Southeast  Level Estimated
Tue 04:35:00 PM 48.9949 100.3807 130° Southeast  Level Estimated
Tue 04:36:00 PM 48.9145 100.5266 130° Southeast  Level Estimated
Tue 04:37:00 PM 48.8339 100.6720 130° Southeast  Level Estimated
Tue 04:38:00 PM 48.7530 100.8169 130° Southeast  Level Estimated
Tue 04:39:00 PM 48.6720 100.9613 130° Southeast  Level Estimated
Tue 04:40:00 PM 48.5909 101.1053 130° Southeast  Level Estimated
Tue 04:41:00 PM 48.5095 101.2488 131° Southeast  Level Estimated
Tue 04:42:00 PM 48.4280 101.3918 131° Southeast  Level Estimated
Tue 04:43:00 PM 48.3462 101.5344 131° Southeast  Level Estimated
Tue 04:44:00 PM 48.2643 101.6766 131° Southeast  Level Estimated
Tue 04:45:00 PM 48.1823 101.8183 131° Southeast  Level Estimated
Tue 04:46:00 PM 48.1000 101.9595 131° Southeast  Level Estimated
Tue 04:47:00 PM 48.0176 102.1003 131° Southeast  Level Estimated
Tue 04:48:00 PM 47.9350 102.2406 131° Southeast  Level Estimated
Tue 04:49:00 PM 47.8523 102.3805 131° Southeast  Level Estimated
Tue 04:50:00 PM 47.7694 102.5199 131° Southeast  Level Estimated
Tue 04:51:00 PM 47.6863 102.6589 132° Southeast  Level Estimated
Tue 04:52:00 PM 47.6030 102.7974 132° Southeast  Level Estimated
Tue 04:53:00 PM 47.5196 102.9356 132° Southeast  Level Estimated
Tue 04:54:00 PM 47.4360 103.0732 132° Southeast  Level Estimated
Tue 04:55:00 PM 47.3522 103.2105 132° Southeast  Level Estimated
Tue 04:56:00 PM 47.2683 103.3473 132° Southeast  Level Estimated
Tue 04:57:00 PM 47.1842 103.4836 132° Southeast  Level Estimated
Tue 04:58:00 PM 47.1000 103.6195 132° Southeast  Level Estimated
Tue 04:59:00 PM 47.0156 103.7550 132° Southeast  Level Estimated
Tue 05:00:00 PM 46.9310 103.8901 132° Southeast  Level Estimated
Tue 05:01:00 PM 46.8463 104.0248 133° Southeast  Level Estimated
Tue 05:02:00 PM 46.7614 104.1590 133° Southeast  Level Estimated
Tue 05:03:00 PM 46.6764 104.2928 133° Southeast  Level Estimated
Tue 05:04:00 PM 46.5912 104.4262 133° Southeast  Level Estimated
Tue 05:05:00 PM 46.5059 104.5591 133° Southeast  Level Estimated
Tue 05:06:00 PM 46.4204 104.6917 133° Southeast  Level Estimated
Tue 05:07:00 PM 46.3347 104.8238 133° Southeast  Level Estimated
Tue 05:08:00 PM 46.2489 104.9555 133° Southeast  Level Estimated
Tue 05:09:00 PM 46.1630 105.0868 133° Southeast  Level Estimated
Tue 05:10:00 PM 46.0769 105.2177 133° Southeast  Level Estimated
Tue 05:11:00 PM 45.9906 105.3482 134° Southeast  Level Estimated
Tue 05:12:00 PM 45.9042 105.4782 134° Southeast  Level Estimated
Tue 05:13:00 PM 45.8177 105.6079 134° Southeast  Level Estimated
Tue 05:14:00 PM 45.7310 105.7372 134° Southeast  Level Estimated
Tue 05:15:00 PM 45.6441 105.8661 134° Southeast  Level Estimated
Tue 05:16:00 PM 45.5572 105.9945 134° Southeast  Level Estimated
Tue 05:17:00 PM 45.4700 106.1226 134° Southeast  Level Estimated
Tue 05:18:00 PM 45.3828 106.2503 134° Southeast  Level Estimated
Tue 05:19:00 PM 45.2953 106.3776 134° Southeast  Level Estimated
Tue 05:20:00 PM 45.2078 106.5044 134° Southeast  Level Estimated
Tue 05:21:00 PM 45.1201 106.6310 134° Southeast  Level Estimated
Tue 05:22:00 PM 45.0323 106.7571 135° Southeast  Level Estimated
Tue 05:23:00 PM 44.9443 106.8828 135° Southeast  Level Estimated
Tue 05:24:00 PM 44.8562 107.0081 135° Southeast  Level Estimated
Tue 05:25:00 PM 44.7680 107.1331 135° Southeast  Level Estimated
Tue 05:26:00 PM 44.6796 107.2577 135° Southeast  Level Estimated
Tue 05:27:00 PM 44.5911 107.3818 135° Southeast  Level Estimated
Tue 05:28:00 PM 44.5024 107.5057 135° Southeast  Level Estimated
Tue 05:29:00 PM 44.4136 107.6291 135° Southeast  Level Estimated
Tue 05:30:00 PM 44.3247 107.7522 135° Southeast  Level Estimated
Tue 05:31:00 PM 44.2357 107.8749 135° Southeast  Level Estimated
Tue 05:32:00 PM 44.1465 107.9972 135° Southeast  Level Estimated
Tue 05:33:00 PM 44.0572 108.1191 136° Southeast  Level Estimated
Tue 05:34:00 PM 43.9677 108.2407 136° Southeast  Level Estimated
Tue 05:35:00 PM 43.8782 108.3619 136° Southeast  Level Estimated
Tue 05:36:00 PM 43.7885 108.4828 136° Southeast  Level Estimated
Tue 05:37:00 PM 43.6987 108.6033 136° Southeast  Level Estimated
Tue 05:38:00 PM 43.6087 108.7234 136° Southeast  Level Estimated
Tue 05:39:00 PM 43.5186 108.8432 136° Southeast  Level Estimated
Tue 05:40:00 PM 43.4284 108.9626 136° Southeast  Level Estimated
Tue 05:41:00 PM 43.3381 109.0816 136° Southeast  Level Estimated
Tue 05:42:00 PM 43.2477 109.2004 136° Southeast  Level Estimated
Tue 05:43:00 PM 43.1571 109.3187 136° Southeast  Level Estimated
Tue 05:44:00 PM 43.0664 109.4367 136° Southeast  Level Estimated
Tue 05:45:00 PM 42.9756 109.5544 137° Southeast  Level Estimated
Tue 05:46:00 PM 42.8847 109.6717 137° Southeast  Level Estimated
Tue 05:47:00 PM 42.7936 109.7886 137° Southeast  Level Estimated
Tue 05:48:00 PM 42.7024 109.9053 137° Southeast  Level Estimated
Tue 05:49:00 PM 42.6112 110.0215 137° Southeast  Level Estimated
Tue 05:50:00 PM 42.5198 110.1375 137° Southeast  Level Estimated
Tue 05:51:00 PM 42.4282 110.2531 137° Southeast  Level Estimated
Tue 05:52:00 PM 42.3366 110.3683 137° Southeast  Level Estimated
Tue 05:53:00 PM 42.2449 110.4832 137° Southeast  Level Estimated
Tue 05:54:00 PM 42.1530 110.5978 137° Southeast  Level Estimated
Tue 05:55:00 PM 42.0610 110.7121 137° Southeast  Level Estimated
Tue 05:56:00 PM 41.9689 110.8260 137° Southeast  Level Estimated
Tue 05:57:00 PM 41.8767 110.9396 137° Southeast  Level Estimated
Tue 05:58:00 PM 41.7844 111.0529 138° Southeast  Level Estimated
Tue 05:59:00 PM 41.6920 111.1658 138° Southeast  Level Estimated
Tue 06:00:00 PM 41.5995 111.2785 138° Southeast  Level Estimated
Tue 06:01:00 PM 41.5068 111.3907 138° Southeast  Level Estimated
Tue 06:02:00 PM 41.4141 111.5027 138° Southeast  Level Estimated
Tue 06:03:00 PM 41.3212 111.6144 138° Southeast  Level Estimated
Tue 06:04:00 PM 41.2282 111.7257 138° Southeast  Level Estimated
Tue 06:05:00 PM 41.1352 111.8367 138° Southeast  Level Estimated
Tue 06:06:00 PM 41.0420 111.9475 138° Southeast  Level Estimated
Tue 06:07:00 PM 40.9487 112.0579 138° Southeast  Level Estimated
Tue 06:08:00 PM 40.8553 112.1679 138° Southeast  Level Estimated
Tue 06:09:00 PM 40.7618 112.2777 138° Southeast  Level Estimated
Tue 06:10:00 PM 40.6682 112.3872 138° Southeast  Level Estimated
Tue 06:11:00 PM 40.5745 112.4963 138° Southeast  Level Estimated
Tue 06:11:25 PM 40.0390 115.7800 139° Southeast 497 572 39,100  Level FlightAware ADS-B
Tue 06:11:55 PM 39.9770 115.8170 155° Southeast 494 568 39,100  Level FlightAware ADS-B
Tue 06:12:00 PM 40.4807 112.6052 139° Southeast  Level Estimated
Tue 06:12:11 PM 39.9450 115.8330 159° South 482 555 39,100  Level FlightAware ADS-B
Tue 06:12:45 PM 39.8710 115.8630 163° South 477 549 39,100  Level FlightAware ADS-B
Tue 06:13:21 PM 39.7990 115.8930 162° South 475 547 39,100  Level FlightAware ADS-B
Tue 06:13:56 PM 39.7240 115.9230 163° South 475 547 39,100  Level FlightAware ADS-B
Tue 06:14:31 PM 39.6480 115.9540 163° South 475 547 39,100  Level FlightAware ADS-B
Tue 06:15:30 PM 39.5270 116.0040 162° South 473 544 39,100  Level FlightAware ADS-B
Tue 06:16:00 PM 39.4620 116.0300 163° South 472 543 39,100  Level FlightAware ADS-B
Tue 06:16:39 PM 39.3850 116.0610 163° South 473 544 39,100  Level FlightAware ADS-B
Tue 06:17:13 PM 39.3110 116.0910 163° South 475 547 39,100  Level FlightAware ADS-B
Tue 06:17:45 PM 39.2420 116.1190 163° South 476 548 39,100  Level FlightAware ADS-B
Tue 06:18:26 PM 39.1590 116.1520 163° South 474 545 39,100  Level FlightAware ADS-B
Tue 06:18:51 PM 39.1110 116.1710 163° South 474 545 39,100  Level FlightAware ADS-B
Tue 06:19:35 PM 39.0150 116.2150 160° South 484 557 39,100  Level FlightAware ADS-B
Tue 06:20:05 PM 38.9570 116.2480 156° South 486 559 39,100  Level FlightAware ADS-B
Tue 06:20:40 PM 38.8780 116.2930 156° South 483 556 39,100  Level FlightAware ADS-B
Tue 06:21:15 PM 38.8130 116.3300 156° South 481 554 39,100  Level FlightAware ADS-B
Tue 06:21:50 PM 38.7370 116.3730 156° South 483 556 39,100  Level FlightAware ADS-B
Tue 06:22:31 PM 38.6630 116.4150 156° South 482 555 39,100  Level FlightAware ADS-B
Tue 06:23:05 PM 38.5920 116.4550 156° South 483 556 39,100  Level FlightAware ADS-B
Tue 06:23:45 PM 38.5230 116.4950 156° South 483 556 39,100  Level FlightAware ADS-B
Tue 06:24:21 PM 38.4600 116.5300 156° South 483 556 39,100  Level FlightAware ADS-B
Tue 06:24:58 PM 38.3960 116.5670 156° South 483 556 39,100  Level FlightAware ADS-B
Tue 06:25:35 PM 38.3320 116.6030 156° South 483 556 39,100  Level FlightAware ADS-B
Tue 06:26:13 PM 38.2660 116.6410 156° South 483 556 39,100  Level FlightAware ADS-B
Tue 06:26:49 PM 38.2040 116.6760 156° South 483 556 39,100  Level FlightAware ADS-B
Tue 06:27:25 PM 38.1410 116.7120 156° South 483 556 39,100  Level FlightAware ADS-B
Tue 06:28:01 PM 38.0790 116.7470 156° South 483 556 39,100  Level FlightAware ADS-B
Tue 06:28:37 PM 38.0160 116.7820 156° South 483 556 39,100  Level FlightAware ADS-B
Tue 06:29:13 PM 37.9540 116.8170 156° South 483 556 39,100  Level FlightAware ADS-B
Tue 06:29:49 PM 37.8910 116.8530 156° South 483 556 39,100  Level FlightAware ADS-B
Tue 06:30:25 PM 37.8290 116.8880 156° South 483 556 39,100  Level FlightAware ADS-B
Tue 06:30:59 PM 37.7700 116.9210 156° South 483 556 39,100  Level FlightAware ADS-B
Tue 06:31:36 PM 37.7060 116.9570 156° South 483 556 39,100  Level FlightAware ADS-B
Tue 06:32:12 PM 37.6430 116.9920 156° South 483 556 39,100  Level FlightAware ADS-B
Tue 06:32:48 PM 37.5810 117.0280 155° Southeast 483 556 39,100  Level FlightAware ADS-B
Tue 06:35:00 PM 37.3495 117.2155 147° Southeast  Level Estimated
Tue 06:36:00 PM 37.2442 117.3003 147° Southeast  Level Estimated
Tue 06:37:00 PM 37.1389 117.3849 147° Southeast  Level Estimated
Tue 06:38:00 PM 37.0334 117.4693 147° Southeast  Level Estimated
Tue 06:39:00 PM 36.9279 117.5534 147° Southeast  Level Estimated
Tue 06:40:00 PM 36.8224 117.6373 148° Southeast  Level Estimated
Tue 06:41:00 PM 36.7168 117.7210 148° Southeast  Level Estimated
Tue 06:42:00 PM 36.6111 117.8044 148° Southeast  Level Estimated
Tue 06:43:00 PM 36.5054 117.8876 148° Southeast  Level Estimated
Tue 06:44:00 PM 36.3996 117.9706 148° Southeast  Level Estimated
Tue 06:45:00 PM 36.2938 118.0534 148° Southeast  Level Estimated
Tue 06:46:00 PM 36.1879 118.1359 148° Southeast  Level Estimated
Tue 06:47:00 PM 36.0819 118.2182 148° Southeast  Level Estimated
Tue 06:48:00 PM 35.9759 118.3003 148° Southeast  Level Estimated
Tue 06:49:00 PM 35.8698 118.3822 148° Southeast  Level Estimated
Tue 06:50:00 PM 35.7637 118.4639 148° Southeast  Level Estimated
Tue 06:51:00 PM 35.6576 118.5453 148° Southeast  Level Estimated
Tue 06:52:00 PM 35.5513 118.6265 148° Southeast  Level Estimated
Tue 06:53:00 PM 35.4450 118.7075 148° Southeast  Level Estimated
Tue 06:54:00 PM 35.3387 118.7883 148° Southeast  Level Estimated
Tue 06:55:00 PM 35.2323 118.8689 148° Southeast  Level Estimated
Tue 06:56:00 PM 35.1259 118.9492 148° Southeast  Level Estimated
Tue 06:57:00 PM 35.0194 119.0294 148° Southeast  Level Estimated
Tue 06:58:00 PM 34.9128 119.1094 148° Southeast  Level Estimated
Tue 06:59:00 PM 34.8062 119.1891 148° Southeast  Level Estimated
Tue 07:00:00 PM 34.6996 119.2686 148° Southeast  Level Estimated
Tue 07:01:00 PM 34.5929 119.3480 149° Southeast  Level Estimated
Tue 07:02:00 PM 34.4861 119.4271 149° Southeast  Level Estimated
Tue 07:03:00 PM 34.3793 119.5060 149° Southeast  Level Estimated
Tue 07:04:00 PM 34.2724 119.5847 149° Southeast  Level Estimated
Tue 07:05:00 PM 34.1655 119.6633 149° Southeast  Level Estimated
Tue 07:06:00 PM 34.0586 119.7416 149° Southeast  Level Estimated
Tue 07:07:00 PM 33.9515 119.8197 149° Southeast  Level Estimated
Tue 07:08:00 PM 33.8445 119.8976 149° Southeast  Level Estimated
Tue 07:09:00 PM 33.7374 119.9754 149° Southeast  Level Estimated
Tue 07:09:15 PM 32.9400 118.8170 149° Southeast 485 558 39,100  Level FlightAware ADS-B
Tue 07:09:54 PM 32.8650 118.8790 145° Southeast 486 559 39,100  Level FlightAware ADS-B
Tue 07:10:34 PM 32.7950 118.9370 145° Southeast 485 558 39,100  Level FlightAware ADS-B
Tue 07:11:09 PM 32.7230 118.9970 145° Southeast 486 559 39,100 -75 Level FlightAware ADS-B
Tue 07:11:54 PM 32.6480 119.0590 145° Southeast 486 559 39,000 -424 Descending FlightAware ADS-B
Tue 07:12:34 PM 32.5820 119.1140 145° Southeast 486 559 38,500 -2,240 Descending FlightAware ADS-B
Tue 07:13:09 PM 32.5050 119.1770 145° Southeast 502 578 36,200 -2,400 Descending FlightAware ADS-B
Tue 07:13:49 PM 32.4290 119.2400 145° Southeast 507 583 35,500 -1,029 Descending FlightAware ADS-B
Tue 07:14:19 PM 32.3690 119.2890 145° Southeast 506 582 35,000 -667 Descending FlightAware ADS-B
Tue 07:15:10 PM 32.2760 119.3660 145° Southeast 507 583 34,600 -276 Descending FlightAware ADS-B
Tue 07:15:46 PM 32.2170 119.4150 145° Southeast 507 583 34,600  Level FlightAware ADS-B
Tue 07:16:22 PM 32.1580 119.4630 145° Southeast 507 583 34,600 -2,800 Level FlightAware ADS-B
Tue 07:17:16 PM 32.0470 119.5530 145° Southeast 489 563 30,400 -3,890 Descending FlightAware ADS-B
Tue 07:17:53 PM 31.9710 119.6140 146° Southeast 489 563 28,700 -2,338 Descending FlightAware ADS-B
Tue 07:18:33 PM 31.9020 119.6850 139° Southeast 456 525 27,400 -1,680 Descending FlightAware ADS-B
Tue 07:19:08 PM 31.8660 119.7470 124° Southeast 450 518 26,600 -1,800 Descending FlightAware ADS-B
Tue 07:19:43 PM 31.8300 119.8220 119° Southeast 445 512 25,300 -1,920 Descending FlightAware ADS-B
Tue 07:20:23 PM 31.7870 119.9130 119° Southeast 437 503 24,200 -1,800 Descending FlightAware ADS-B
Tue 07:20:53 PM 31.7570 119.9770 119° Southeast 428 493 23,200 -1,846 Descending FlightAware ADS-B
Tue 07:21:28 PM 31.7230 120.0490 119° Southeast 421 484 22,200 -1,800 Descending FlightAware ADS-B
Tue 07:22:03 PM 31.6900 120.1170 120° Southeast 419 482 21,100 -1,200 Descending FlightAware ADS-B
Tue 07:22:43 PM 31.6530 120.1970 119° Southeast 410 472 20,700 -943 Descending FlightAware ADS-B
Tue 07:23:13 PM 31.6250 120.2550 120° Southeast 413 475 20,000 -857 Descending FlightAware ADS-B
Tue 07:23:53 PM 31.5890 120.3320 119° Southeast 410 472 19,700 -900 Descending FlightAware ADS-B
Tue 07:24:33 PM 31.5630 120.4170 110° East 410 472 18,800 -1,680 Descending FlightAware ADS-B
Tue 07:25:08 PM 31.5410 120.4910 109° East 409 471 17,600 -1,714 Descending FlightAware ADS-B
Tue 07:25:43 PM 31.5200 120.5600 110° East 396 456 16,800 -1,579 Descending FlightAware ADS-B
Tue 07:26:24 PM 31.4960 120.6400 109° East 391 450 15,600 -1,600 Descending FlightAware ADS-B
Tue 07:26:58 PM 31.4740 120.7110 110° East 381 438 14,800 -1,417 Descending FlightAware ADS-B
Tue 07:27:36 PM 31.4520 120.7820 110° East 372 428 13,900 -1,500 Descending FlightAware ADS-B
Tue 07:28:06 PM 31.4350 120.8400 109° East 365 420 13,100 -1,543 Descending FlightAware ADS-B
Tue 07:28:46 PM 31.4110 120.9150 111° Southeast 360 414 12,100 -1,543 Descending FlightAware ADS-B
Tue 07:29:16 PM 31.3950 120.9690 109° East 356 410 11,300 -1,477 Descending FlightAware ADS-B
Tue 07:29:51 PM 31.3750 121.0330 110° East 350 403 10,500 -880 Descending FlightAware ADS-B
Tue 07:30:31 PM 31.3540 121.1010 110° East 328 377 10,200 -514 Descending FlightAware ADS-B
Tue 07:31:01 PM 31.3390 121.1510 109° East 309 356 9,900 -480 Descending FlightAware ADS-B
Tue 07:31:21 PM 31.3300 121.1810 109° East 308 354 9,800 -171 Descending FlightAware ADS-B
Tue 07:31:36 PM 31.3230 121.2040 110° East 307 353 9,800  Level FlightAware ADS-B
Tue 07:31:56 PM 31.3130 121.2370 110° East 311 358 9,800 -533 Level FlightAware ADS-B
Tue 07:32:21 PM 31.3010 121.2780 109° East 309 356 9,400 -1,200 Descending FlightAware ADS-B
Tue 07:32:41 PM 31.2920 121.3090 109° East 306 352 8,900 -1,543 Descending FlightAware ADS-B
Tue 07:32:56 PM 31.2870 121.3290 106° East 302 348 8,500 -1,500 Descending FlightAware ADS-B
Tue 07:33:01 PM 31.2870 121.3400 90° East 304 350 8,400 -1,556 Descending FlightAware ADS-B
Tue 07:33:23 PM 31.2920 121.3770 81° East 300 345 7,800 -1,622 Descending FlightAware ADS-B
Tue 07:33:38 PM 31.2990 121.3980 69° East 301 346 7,400 -1,714 Descending FlightAware ADS-B
Tue 07:33:58 PM 31.3110 121.4290 66° East 299 344 6,800 -1,543 Descending FlightAware ADS-B
Tue 07:34:13 PM 31.3200 121.4500 63° Northeast 298 343 6,500 -1,029 Descending FlightAware ADS-B
Tue 07:34:33 PM 31.3320 121.4790 64° Northeast 282 325 6,200 -732 Descending FlightAware ADS-B
Tue 07:34:54 PM 31.3430 121.5030 62° Northeast 262 302 6,000 -429 Descending FlightAware ADS-B
Tue 07:35:15 PM 31.3530 121.5270 64° Northeast 237 273 5,900 -162 Descending FlightAware ADS-B
Tue 07:35:31 PM 31.3600 121.5450 66° East 214 246 5,900  Level FlightAware ADS-B
Tue 07:35:51 PM 31.3690 121.5660 63° Northeast 199 229 5,900 -150 Level FlightAware ADS-B
Tue 07:36:11 PM 31.3780 121.5870 63° Northeast 203 234 5,800 -750 Descending FlightAware ADS-B
Tue 07:36:31 PM 31.3860 121.6060 64° Northeast 205 236 5,400 -1,200 Descending FlightAware ADS-B
Tue 07:36:56 PM 31.3970 121.6310 63° Northeast 204 235 4,900 -1,200 Descending FlightAware ADS-B
Tue 07:37:16 PM 31.4060 121.6520 63° Northeast 209 241 4,500 -1,200 Descending FlightAware ADS-B
Tue 07:37:21 PM 31.4070 121.6570 77° East 209 241 4,400 -1,800 Descending FlightAware ADS-B
Tue 07:37:26 PM 31.4070 121.6620 90° East 207 238 4,200 -960 Descending FlightAware ADS-B
Tue 07:37:46 PM 31.3980 121.6820 118° Southeast 192 221 4,000 -600 Descending FlightAware ADS-B
Tue 07:37:56 PM 31.3920 121.6880 140° Southeast 188 216 3,900 -960 Descending FlightAware ADS-B
Tue 07:38:11 PM 31.3810 121.6970 145° Southeast 187 215 3,600 -1,250 Descending FlightAware ADS-B
Tue 07:38:20 PM 31.3720 121.7010 159° South 195 224 3,400 -828 Descending FlightAware ADS-B
Tue 07:38:40 PM 31.3550 121.7080 161° South 190 219 3,200 -585 Descending FlightAware ADS-B
Tue 07:39:01 PM 31.3380 121.7140 163° South 173 199 3,000 -293 Descending FlightAware ADS-B
Tue 07:39:21 PM 31.3240 121.7190 163° South 172 198 3,000  Level FlightAware ADS-B
Tue 07:39:41 PM 31.3080 121.7250 162° South 173 199 3,000  Level FlightAware ADS-B
Tue 07:40:11 PM 31.2900 121.7320 162° South 173 199 3,000 -923 Level FlightAware ADS-B
Tue 07:40:46 PM 31.2550 121.7450 162° South 172 198 2,000 -1,418 Descending FlightAware ADS-B
Tue 07:41:06 PM 31.2410 121.7510 160° South 172 198 1,700 -878 Descending FlightAware ADS-B
Tue 07:41:27 PM 31.2270 121.7560 163° South 156 180 1,400 -367 Descending FlightAware ADS-B
Tue 07:41:55 PM 31.2110 121.7620 162° South 156 180 1,400 -667 Level FlightAware ADS-B
Tue 07:42:21 PM 31.1930 121.7690 162° South 156 180 800 -1,174 Descending FlightAware ADS-B
Tue 07:42:41 PM 31.1810 121.7730 164° South 141 162 500 -800 Descending FlightAware ADS-B
Tue 07:43:06 PM 31.1640 121.7800 161° South 141 162 200 -346 Descending FlightAware ADS-B
Tue 07:43:33 PM 31.1500 121.7860 160° South 141 162 200  Level FlightAware ADS-B
Tue 07:46:00 PM 31.1428 121.7924 143° Southeast  Level Estimated
Tue 07:47:00 PM 31.1428 121.7924 221° Southwest  Level Estimated
Tue 07:48:00 PM 31.1428 121.7924 221° Southwest  Level Estimated
Tue 07:49:00 PM 31.1428 121.7924 221° Southwest  Level Estimated
Tue 07:50:00 PM 31.1428 121.7924 221° Southwest  Level Estimated
Tue 07:51:00 PM 31.1428 121.7924 221° Southwest  Level Estimated

Login

Don't have an account? Register now (free) for customized features, flight alerts, and more!